Data Archive--April, 2003

Date Time Heat Index Current Temp Wind Chill High Temp Low Temp Humidity Dew Point Wind Speed Gust Wind Direction Rain Barometer
04/01/2003 12:00 a 28.5 28.5 28.5 28.5 28.3 75 21.6 0.0 3.0 SSE 0.00 29.940
04/01/2003 12:30 a 27.8 27.8 27.8 28.3 27.5 77 21.5 0.0 2.0 SSE 0.00 29.949
04/01/2003 1:00 a 27.2 27.2 27.2 27.5 27.0 77 21.0 0.0 4.0 SSE 0.00 29.958
04/01/2003 1:30 a 26.7 26.7 26.7 27.1 26.3 77 20.5 0.0 0.0 --- 0.00 29.962
04/01/2003 2:00 a 26.3 26.3 26.3 26.5 26.1 75 19.5 0.0 2.0 SSE 0.00 29.977
04/01/2003 2:30 a 25.9 25.9 25.9 26.1 25.6 71 17.8 0.0 1.0 --- 0.00 29.982
04/01/2003 3:00 a 25.9 25.9 25.9 26.1 25.3 70 17.5 0.0 2.0 S 0.00 29.982
04/01/2003 3:30 a 24.8 24.8 24.8 25.3 24.3 71 16.7 0.0 0.0 --- 0.00 29.990
04/01/2003 4:00 a 23.8 23.8 23.8 24.4 23.1 76 17.4 0.0 0.0 --- 0.00 30.000
04/01/2003 4:30 a 23.2 23.2 23.2 23.4 22.8 77 17.1 0.0 0.0 --- 0.00 30.005
04/01/2003 5:00 a 22.3 22.3 22.3 22.8 22.0 81 17.4 0.0 0.0 --- 0.00 30.001
04/01/2003 5:30 a 22.1 22.1 22.1 22.4 21.6 83 17.7 0.0 0.0 --- 0.00 30.018
04/01/2003 6:00 a 22.7 22.7 22.7 23.1 21.7 79 17.2 0.0 0.0 --- 0.00 30.034
04/01/2003 6:30 a 24.0 24.0 24.0 26.1 22.9 74 16.9 0.0 0.0 --- 0.00 30.035
04/01/2003 7:00 a 28.5 28.5 28.5 30.0 26.1 62 17.2 0.0 0.0 --- 0.00 30.031
04/01/2003 7:30 a 30.8 30.8 30.8 31.8 30.0 56 17.0 0.0 0.0 --- 0.00 30.035
04/01/2003 8:00 a 33.5 33.5 33.5 35.4 31.8 46 15.0 0.0 2.0 S 0.00 30.038
04/01/2003 8:30 a 36.5 36.5 36.5 37.4 35.4 42 15.6 0.0 3.0 S 0.00 30.030
04/01/2003 9:00 a 40.3 40.3 40.3 42.0 37.3 35 14.8 0.0 3.0 S 0.00 30.015
04/01/2003 9:30 a 42.6 42.6 42.6 43.1 41.9 33 15.5 0.0 3.0 E 0.00 29.999
04/01/2003 10:00 a 41.5 41.5 41.5 42.2 41.3 33 14.6 0.0 2.0 NE 0.00 29.979
04/01/2003 10:30 a 43.5 43.5 43.5 44.2 42.0 33 16.3 0.0 3.0 NE 0.00 29.965
04/01/2003 11:00 a 41.1 41.1 41.1 42.8 40.5 39 18.0 0.0 5.0 NE 0.00 29.936
04/01/2003 11:30 a 40.6 40.6 40.6 40.6 40.6 42 19.3 0.0 3.0 NNE 0.00 29.932
04/01/2003 12:00 p 40.4 40.4 40.4 40.7 39.5 60 27.6 1.0 5.0 NNE 0.00 29.907
04/01/2003 12:30 p 39.6 39.6 39.6 40.4 39.2 62 27.7 1.0 3.0 NNE 0.00 29.883
04/01/2003 1:00 p 41.0 41.0 41.0 41.3 40.4 58 27.4 0.0 4.0 N 0.00 29.852
04/01/2003 1:30 p 40.6 40.6 40.6 41.6 39.7 63 29.0 0.0 2.0 NE 0.00 29.843
04/01/2003 2:00 p 39.7 39.7 39.7 40.1 39.1 74 32.1 1.0 3.0 N 0.00 29.825
04/01/2003 2:30 p 39.1 39.1 39.1 39.2 39.0 83 34.4 0.0 3.0 NNW 0.00 29.798
04/01/2003 3:00 p 39.2 39.2 39.2 39.4 38.9 88 36.0 0.0 2.0 NNW 0.00 29.781
04/01/2003 3:30 p 39.1 39.1 39.1 39.2 38.9 91 36.7 0.0 1.0 NNW 0.01 29.787
04/01/2003 4:00 p 38.9 38.9 38.9 39.0 38.8 94 37.3 0.0 0.0 --- 0.07 29.765
04/01/2003 4:30 p 39.4 39.4 39.4 39.7 39.0 94 37.8 0.0 0.0 --- 0.04 29.750
04/01/2003 5:00 p 40.5 40.5 40.5 41.3 39.7 94 38.9 0.0 0.0 --- 0.00 29.746
04/01/2003 5:30 p 41.1 41.1 41.1 41.3 40.8 94 39.5 0.0 0.0 --- 0.00 29.745
04/01/2003 6:00 p 39.9 39.9 39.9 40.8 39.5 94 38.3 0.0 0.0 --- 0.00 29.754
04/01/2003 6:30 p 39.9 39.9 39.9 40.1 39.7 94 38.3 0.0 1.0 NNW 0.00 29.769
04/01/2003 7:00 p 40.0 40.0 40.0 40.1 39.9 95 38.7 0.0 1.0 NNW 0.00 29.788
04/01/2003 7:30 p 39.9 39.9 39.9 40.0 39.7 95 38.6 0.0 0.0 --- 0.01 29.790
04/01/2003 8:00 p 39.0 39.0 39.0 39.7 38.2 94 37.4 0.0 0.0 --- 0.00 29.779
04/01/2003 8:30 p 38.4 38.4 38.4 38.5 38.2 94 36.8 0.0 0.0 --- 0.00 29.782
04/01/2003 9:00 p 37.9 37.9 37.9 38.2 37.7 94 36.3 0.0 0.0 --- 0.00 29.788
04/01/2003 9:30 p 38.4 38.4 38.4 38.5 38.1 94 36.8 0.0 0.0 --- 0.00 29.782
04/01/2003 10:00 p 38.1 38.1 38.1 38.5 37.0 94 36.5 0.0 0.0 --- 0.00 29.772
04/01/2003 10:30 p 37.1 37.1 37.1 37.7 36.8 94 35.5 0.0 0.0 --- 0.00 29.783
04/01/2003 11:00 p 37.8 37.8 37.8 37.9 37.7 94 36.2 0.0 0.0 --- 0.00 29.794
04/01/2003 11:30 p 38.2 38.2 38.2 38.4 37.8 94 36.6 0.0 1.0 NNW 0.00 29.803
04/02/2003 12:00 a 38.2 38.2 38.2 38.3 38.1 94 36.6 0.0 1.0 --- 0.00 29.803
04/02/2003 12:30 a 38.5 38.5 38.5 38.7 38.2 95 37.2 0.0 0.0 --- 0.00 29.806
04/02/2003 1:00 a 38.7 38.7 38.7 38.7 38.6 94 37.1 0.0 0.0 --- 0.00 29.804
04/02/2003 1:30 a 38.8 38.8 38.8 39.0 38.6 95 37.5 0.0 0.0 --- 0.00 29.793
04/02/2003 2:00 a 39.1 39.1 39.1 39.3 38.9 95 37.8 0.0 0.0 --- 0.00 29.809
04/02/2003 2:30 a 39.3 39.3 39.3 39.4 39.2 95 38.0 0.0 0.0 --- 0.00 29.809
04/02/2003 3:00 a 39.5 39.5 39.5 39.5 39.4 95 38.2 0.0 0.0 --- 0.00 29.810
04/02/2003 3:30 a 39.5 39.5 39.5 39.6 39.3 95 38.2 0.0 0.0 --- 0.00 29.804
04/02/2003 4:00 a 39.4 39.4 39.4 39.5 39.2 95 38.1 0.0 0.0 --- 0.00 29.826
04/02/2003 4:30 a 39.5 39.5 39.5 39.5 39.4 95 38.2 0.0 0.0 --- 0.00 29.845
04/02/2003 5:00 a 39.5 39.5 39.5 39.6 39.4 95 38.2 0.0 0.0 --- 0.00 29.866
04/02/2003 5:30 a 39.6 39.6 39.6 39.6 39.4 95 38.3 0.0 0.0 --- 0.00 29.878
04/02/2003 6:00 a 39.7 39.7 39.7 40.1 39.4 95 38.4 0.0 0.0 --- 0.00 29.878
04/02/2003 6:30 a 40.3 40.3 40.3 40.5 40.0 95 39.0 0.0 0.0 --- 0.01 29.888
04/02/2003 7:00 a 40.8 40.8 40.8 41.2 40.5 95 39.5 0.0 0.0 --- 0.00 29.893
04/02/2003 7:30 a 42.1 42.1 42.1 42.9 41.2 96 41.0 0.0 1.0 --- 0.00 29.889
04/02/2003 8:00 a 43.4 43.4 43.4 44.0 42.9 95 42.1 0.0 1.0 NNW 0.00 29.892
04/02/2003 8:30 a 45.2 45.2 45.2 47.7 44.0 95 43.9 0.0 1.0 NNW 0.00 29.892
04/02/2003 9:00 a 48.2 48.2 48.2 50.2 47.3 94 46.6 0.0 2.0 NNW 0.00 29.900
04/02/2003 9:30 a 50.9 50.9 50.9 52.1 50.1 93 49.0 0.0 2.0 N 0.00 29.905
04/02/2003 10:00 a 54.8 54.8 54.8 56.1 52.1 90 51.9 0.0 3.0 N 0.00 29.900
04/02/2003 10:30 a 56.6 56.6 56.6 57.5 55.6 88 53.1 0.0 3.0 N 0.00 29.888
04/02/2003 11:00 a 58.0 58.0 58.0 58.9 56.8 86 53.8 1.0 3.0 N 0.00 29.889
04/02/2003 11:30 a 59.7 59.7 59.7 62.8 57.7 82 54.2 1.0 5.0 N 0.00 29.882
04/02/2003 12:00 p 64.0 64.0 64.0 64.4 62.8 76 56.3 1.0 3.0 N 0.00 29.869
04/02/2003 12:30 p 65.0 65.0 65.0 66.5 63.6 76 57.3 1.0 6.0 N 0.00 29.859
04/02/2003 1:00 p 65.0 65.0 65.0 66.0 64.1 69 54.6 2.0 6.0 N 0.00 29.844
04/02/2003 1:30 p 61.1 61.1 61.1 64.1 59.2 68 50.5 2.0 6.0 N 0.00 29.831
04/02/2003 2:00 p 58.3 58.3 58.3 59.2 57.8 62 45.4 2.0 7.0 N 0.00 29.817
04/02/2003 2:30 p 58.2 58.2 58.2 58.7 57.7 63 45.7 2.0 5.0 N 0.00 29.812
04/02/2003 3:00 p 57.4 57.4 57.4 58.4 56.4 63 44.9 2.0 6.0 N 0.00 29.802
04/02/2003 3:30 p 56.0 56.0 56.0 56.5 55.9 65 44.4 1.0 5.0 N 0.00 29.790
04/02/2003 4:00 p 55.9 55.9 55.9 56.3 54.9 63 43.5 2.0 5.0 N 0.00 29.794
04/02/2003 4:30 p 54.2 54.2 54.2 54.9 53.3 67 43.5 1.0 5.0 N 0.00 29.790
04/02/2003 5:00 p 52.2 52.2 52.2 53.3 51.4 71 43.1 1.0 4.0 NW 0.00 29.793
04/02/2003 5:30 p 50.6 50.6 50.6 51.4 49.5 74 42.6 1.0 4.0 NNW 0.00 29.792
04/02/2003 6:00 p 48.2 48.2 48.2 49.5 46.9 80 42.3 1.0 4.0 N 0.00 29.789
04/02/2003 6:30 p 45.9 45.9 45.9 46.9 45.1 84 41.3 1.0 3.0 N 0.00 29.785
04/02/2003 7:00 p 44.4 44.4 44.4 45.1 43.9 87 40.8 1.0 5.0 NNW 0.00 29.792
04/02/2003 7:30 p 43.7 43.7 43.7 43.9 43.6 87 40.1 1.0 3.0 NW 0.00 29.801
04/02/2003 8:00 p 44.0 44.0 44.0 44.1 43.8 87 40.4 1.0 3.0 NW 0.00 29.807
04/02/2003 8:30 p 44.0 44.0 44.0 44.0 43.9 87 40.4 1.0 4.0 NW 0.00 29.811
04/02/2003 9:00 p 44.2 44.2 44.2 44.6 43.9 87 40.6 1.0 4.0 NNW 0.00 29.816
04/02/2003 9:30 p 44.6 44.6 44.6 44.7 44.5 86 40.7 0.0 2.0 NNW 0.00 29.823
04/02/2003 10:00 p 44.0 44.0 44.0 44.6 43.3 89 41.0 0.0 2.0 NNW 0.00 29.834
04/02/2003 10:30 p 43.2 43.2 43.2 43.5 43.1 87 39.6 0.0 2.0 NNW 0.00 29.841
04/02/2003 11:00 p 43.7 43.7 43.7 44.0 43.4 85 39.5 1.0 3.0 W 0.00 29.844
04/02/2003 11:30 p 43.6 43.6 43.6 43.9 43.4 86 39.7 0.0 3.0 NNW 0.00 29.843
04/03/2003 12:00 a 43.2 43.2 43.2 43.6 42.8 86 39.3 0.0 3.0 NW 0.00 29.839
04/03/2003 12:30 a 42.5 42.5 42.5 42.8 42.3 85 38.3 0.0 4.0 NW 0.00 29.835
04/03/2003 1:00 a 41.8 41.8 41.8 42.3 41.5 87 38.2 0.0 2.0 NE 0.00 29.835
04/03/2003 1:30 a 41.1 41.1 41.1 41.5 40.6 89 38.1 0.0 1.0 NE 0.00 29.836
04/03/2003 2:00 a 41.3 41.3 41.3 41.9 40.7 86 37.4 0.0 3.0 NNW 0.00 29.839
04/03/2003 2:30 a 42.3 42.3 42.3 42.5 41.9 85 38.1 0.0 3.0 NNW 0.00 29.834
04/03/2003 3:00 a 42.5 42.5 42.5 42.5 42.3 85 38.3 0.0 2.0 NNW 0.00 29.829
04/03/2003 3:30 a 42.3 42.3 42.3 42.4 42.2 86 38.4 0.0 3.0 NW 0.00 29.828
04/03/2003 4:00 a 42.2 42.2 42.2 42.2 42.1 86 38.3 0.0 2.0 NW 0.00 29.840
04/03/2003 4:30 a 42.0 42.0 42.0 42.2 41.9 87 38.4 0.0 3.0 NW 0.00 29.849
04/03/2003 5:00 a 41.7 41.7 41.7 41.9 41.6 87 38.1 0.0 2.0 ENE 0.00 29.861
04/03/2003 5:30 a 41.6 41.6 41.6 41.7 41.6 87 38.0 0.0 2.0 N 0.00 29.865
04/03/2003 6:00 a 41.7 41.7 41.7 41.9 41.6 85 37.5 0.0 3.0 NW 0.00 29.883
04/03/2003 6:30 a 42.0 42.0 42.0 42.2 41.8 84 37.5 0.0 3.0 N 0.00 29.882
04/03/2003 7:00 a 42.3 42.3 42.3 42.4 42.1 82 37.2 0.0 3.0 NW 0.00 29.903
04/03/2003 7:30 a 42.8 42.8 42.8 43.3 42.4 79 36.7 1.0 3.0 NW 0.00 29.893
04/03/2003 8:00 a 44.1 44.1 44.1 44.9 43.3 75 36.7 1.0 4.0 NW 0.00 29.900
04/03/2003 8:30 a 46.0 46.0 46.0 48.2 44.9 68 36.0 0.0 3.0 NNW 0.00 29.911
04/03/2003 9:00 a 53.0 53.0 53.0 55.4 48.3 55 37.3 1.0 3.0 NW 0.00 29.900
04/03/2003 9:30 a 55.4 55.4 55.4 57.1 53.9 53 38.6 1.0 5.0 N 0.00 29.902
04/03/2003 10:00 a 55.6 55.6 55.6 57.0 54.5 52 38.3 1.0 5.0 N 0.00 29.906
04/03/2003 10:30 a 57.8 57.8 57.8 58.5 56.8 49 38.8 1.0 4.0 NNW 0.00 29.906
04/03/2003 11:00 a 57.1 57.1 57.1 58.5 56.4 49 38.1 1.0 3.0 N 0.00 29.892
04/03/2003 11:30 a 57.7 57.7 57.7 59.9 56.9 47 37.6 0.0 4.0 N 0.00 29.882
04/03/2003 12:00 p 59.5 59.5 59.5 60.9 58.5 47 39.3 1.0 4.0 N 0.00 29.876
04/03/2003 12:30 p 59.3 59.3 59.3 60.1 58.3 50 40.7 1.0 5.0 N 0.00 29.867
04/03/2003 1:00 p 59.9 59.9 59.9 63.0 57.7 42 36.8 1.0 5.0 N 0.00 29.866
04/03/2003 1:30 p 59.2 59.2 59.2 62.5 57.8 51 41.1 1.0 6.0 N 0.00 29.858
04/03/2003 2:00 p 57.4 57.4 57.4 58.2 56.6 53 40.4 1.0 5.0 N 0.00 29.846
04/03/2003 2:30 p 57.1 57.1 57.1 57.7 56.5 54 40.6 2.0 5.0 N 0.00 29.843
04/03/2003 3:00 p 56.7 56.7 56.7 56.9 56.3 55 40.7 2.0 6.0 N 0.00 29.829
04/03/2003 3:30 p 55.6 55.6 55.6 56.4 54.9 55 39.7 2.0 5.0 N 0.00 29.828
04/03/2003 4:00 p 53.8 53.8 53.8 55.4 52.7 58 39.4 2.0 5.0 N 0.00 29.834
04/03/2003 4:30 p 51.6 51.6 51.6 52.8 50.0 61 38.6 2.0 7.0 N 0.00 29.834
04/03/2003 5:00 p 48.4 48.4 48.4 50.0 47.1 70 39.1 2.0 8.0 N 0.00 29.840
04/03/2003 5:30 p 46.3 46.3 46.3 47.1 45.6 72 37.8 2.0 5.0 N 0.00 29.836
04/03/2003 6:00 p 44.7 44.7 44.7 45.6 44.3 75 37.3 1.0 5.0 N 0.00 29.834
04/03/2003 6:30 p 43.5 43.5 43.5 44.4 42.8 79 37.4 1.0 5.0 N 0.00 29.833
04/03/2003 7:00 p 42.5 42.5 42.5 42.8 42.2 82 37.4 1.0 5.0 N 0.00 29.853
04/03/2003 7:30 p 41.9 41.9 41.9 42.2 41.8 82 36.8 1.0 6.0 N 0.00 29.865
04/03/2003 8:00 p 42.3 42.3 42.3 42.5 41.9 82 37.2 1.0 4.0 N 0.00 29.876
04/03/2003 8:30 p 42.3 42.3 42.3 42.5 42.2 83 37.5 2.0 5.0 N 0.00 29.867
04/03/2003 9:00 p 42.0 42.0 42.0 42.3 41.8 83 37.2 1.0 5.0 N 0.00 29.869
04/03/2003 9:30 p 42.0 42.0 42.0 42.1 41.9 84 37.5 2.0 5.0 N 0.00 29.873
04/03/2003 10:00 p 41.9 41.9 41.9 42.1 41.9 83 37.1 1.0 6.0 N 0.00 29.878
04/03/2003 10:30 p 42.1 42.1 42.1 42.1 42.0 85 37.9 1.0 7.0 N 0.00 29.866
04/03/2003 11:00 p 42.1 42.1 42.1 42.2 42.0 84 37.6 1.0 7.0 N 0.00 29.862
04/03/2003 11:30 p 42.0 42.0 42.0 42.1 41.9 85 37.8 2.0 5.0 N 0.00 29.846
04/04/2003 12:00 a 41.9 41.9 41.9 42.0 41.8 85 37.7 2.0 6.0 N 0.00 29.845
04/04/2003 12:30 a 41.7 41.7 41.7 41.9 41.6 86 37.8 2.0 6.0 N 0.00 29.844
04/04/2003 1:00 a 41.6 41.6 41.6 41.7 41.3 88 38.3 1.0 5.0 N 0.00 29.827
04/04/2003 1:30 a 41.2 41.2 41.2 41.4 41.0 90 38.5 1.0 4.0 N 0.00 29.818
04/04/2003 2:00 a 40.8 40.8 40.8 41.0 40.7 91 38.4 1.0 5.0 N 0.00 29.804
04/04/2003 2:30 a 40.7 40.7 40.7 40.8 40.7 90 38.0 1.0 5.0 N 0.00 29.792
04/04/2003 3:00 a 40.6 40.6 40.6 40.7 40.6 92 38.5 1.0 6.0 N 0.00 29.788
04/04/2003 3:30 a 40.4 40.4 40.4 40.6 40.3 93 38.5 1.0 6.0 N 0.00 29.792
04/04/2003 4:00 a 40.4 40.4 40.4 40.4 40.3 93 38.5 1.0 6.0 N 0.00 29.800
04/04/2003 4:30 a 40.2 40.2 40.2 40.3 40.2 93 38.3 1.0 5.0 NNE 0.00 29.798
04/04/2003 5:00 a 40.3 40.3 40.3 40.4 40.3 93 38.4 1.0 4.0 N 0.00 29.812
04/04/2003 5:30 a 40.3 40.3 40.3 40.4 40.2 94 38.7 1.0 5.0 N 0.00 29.815
04/04/2003 6:00 a 40.4 40.4 40.4 40.7 40.3 94 38.8 1.0 3.0 NW 0.00 29.836
04/04/2003 6:30 a 40.7 40.7 40.7 40.9 40.6 94 39.1 0.0 3.0 NW 0.00 29.824
04/04/2003 7:00 a 41.1 41.1 41.1 41.2 40.9 94 39.5 1.0 4.0 N 0.00 29.818
04/04/2003 7:30 a 41.3 41.3 41.3 41.3 41.2 93 39.4 1.0 5.0 NNW 0.00 29.839
04/04/2003 8:00 a 41.4 41.4 41.4 41.5 41.3 93 39.5 1.0 3.0 NNW 0.00 29.840
04/04/2003 8:30 a 41.6 41.6 41.6 41.8 41.4 93 39.7 1.0 4.0 N 0.00 29.841
04/04/2003 9:00 a 41.9 41.9 41.9 42.0 41.7 92 39.8 1.0 5.0 N 0.00 29.851
04/04/2003 9:30 a 42.0 42.0 42.0 42.1 41.9 92 39.8 1.0 5.0 N 0.00 29.846
04/04/2003 10:00 a 42.1 42.1 42.1 42.3 42.0 91 39.7 2.0 6.0 NW 0.00 29.859
04/04/2003 10:30 a 42.3 42.3 42.3 42.5 42.0 90 39.6 1.0 4.0 N 0.00 29.853
04/04/2003 11:00 a 42.2 42.2 42.2 42.3 42.0 89 39.2 1.0 4.0 NNW 0.00 29.864
04/04/2003 11:30 a 42.0 42.0 42.0 42.1 41.9 88 38.7 1.0 4.0 NNW 0.00 29.860
04/04/2003 12:00 p 42.0 42.0 42.0 42.1 41.9 89 39.0 1.0 6.0 NNE 0.00 29.855
04/04/2003 12:30 p 41.9 41.9 41.9 42.1 41.7 86 38.0 2.0 6.0 N 0.00 29.859
04/04/2003 1:00 p 42.2 42.2 42.2 42.5 42.1 82 37.1 2.0 8.0 N 0.00 29.852
04/04/2003 1:30 p 42.2 42.2 42.2 42.5 42.0 83 37.4 2.0 7.0 N 0.00 29.849
04/04/2003 2:00 p 42.8 42.8 42.8 43.7 42.0 78 36.4 2.0 7.0 N 0.00 29.833
04/04/2003 2:30 p 42.4 42.4 42.4 43.6 41.9 82 37.3 3.0 8.0 N 0.00 29.822
04/04/2003 3:00 p 41.9 41.9 41.9 42.1 41.7 82 36.8 1.0 6.0 N 0.00 29.826
04/04/2003 3:30 p 41.6 41.6 41.6 41.8 41.3 82 36.5 0.0 3.0 NNW 0.00 29.827
04/04/2003 4:00 p 40.1 40.1 40.1 41.3 39.5 85 36.0 2.0 4.0 NW 0.00 29.837
04/04/2003 4:30 p 39.2 39.2 39.2 39.5 38.8 85 35.1 2.0 5.0 NNW 0.00 29.844
04/04/2003 5:00 p 38.6 38.6 38.6 38.9 38.5 85 34.5 1.0 5.0 NNW 0.00 29.844
04/04/2003 5:30 p 38.6 38.6 38.6 38.6 38.4 87 35.1 1.0 4.0 NNW 0.00 29.847
04/04/2003 6:00 p 38.1 38.1 38.1 38.4 37.9 90 35.4 1.0 4.0 NNE 0.00 29.840
04/04/2003 6:30 p 37.7 37.7 37.7 37.9 37.5 91 35.3 1.0 4.0 NNW 0.00 29.844
04/04/2003 7:00 p 37.6 37.6 37.6 37.8 37.5 93 35.8 0.0 3.0 N 0.00 29.864
04/04/2003 7:30 p 37.8 37.8 37.8 37.9 37.7 93 36.0 1.0 4.0 N 0.00 29.872
04/04/2003 8:00 p 37.8 37.8 37.8 37.9 37.8 93 36.0 1.0 4.0 N 0.00 29.880
04/04/2003 8:30 p 37.7 37.7 37.7 37.9 37.6 93 35.9 1.0 4.0 NNW 0.00 29.883
04/04/2003 9:00 p 37.6 37.6 37.6 37.7 37.5 94 36.0 1.0 4.0 N 0.00 29.871
04/04/2003 9:30 p 37.3 37.3 37.3 37.6 37.1 93 35.5 1.0 5.0 NNW 0.00 29.866
04/04/2003 10:00 p 37.0 37.0 37.0 37.1 37.0 94 35.4 1.0 6.0 N 0.00 29.859
04/04/2003 10:30 p 37.0 37.0 37.0 37.0 36.9 94 35.4 1.0 5.0 NNE 0.00 29.862
04/04/2003 11:00 p 36.8 36.8 36.8 37.0 36.8 94 35.2 2.0 6.0 N 0.00 29.882
04/04/2003 11:30 p 36.8 36.8 36.8 36.9 36.7 93 35.0 1.0 5.0 N 0.01 29.865
04/05/2003 12:00 a 36.5 36.5 36.5 36.7 36.4 94 34.9 2.0 6.0 NNW 0.00 29.851
04/05/2003 12:30 a 36.3 36.3 36.3 36.4 36.3 94 34.7 2.0 7.0 NNW 0.00 29.848
04/05/2003 1:00 a 36.0 36.0 36.0 36.3 35.7 94 34.4 2.0 7.0 NNW 0.00 29.824
04/05/2003 1:30 a 35.7 35.7 35.7 35.7 35.6 94 34.1 1.0 5.0 N 0.00 29.839
04/05/2003 2:00 a 35.7 35.7 35.7 35.8 35.7 94 34.1 1.0 4.0 NNW 0.01 29.837
04/05/2003 2:30 a 35.6 35.6 35.6 35.8 35.6 94 34.0 1.0 4.0 NNW 0.00 29.840
04/05/2003 3:00 a 35.5 35.5 35.5 35.7 35.4 94 33.9 0.0 2.0 NW 0.02 29.851
04/05/2003 3:30 a 35.5 35.5 35.5 35.6 35.4 94 33.9 0.0 2.0 NNW 0.00 29.835
04/05/2003 4:00 a 35.6 35.6 35.6 35.7 35.5 94 34.0 0.0 3.0 NNW 0.02 29.845
04/05/2003 4:30 a 35.7 35.7 35.7 35.8 35.6 95 34.4 1.0 6.0 NNW 0.00 29.794
04/05/2003 5:00 a 36.3 36.3 36.3 36.6 35.7 95 35.0 2.0 6.0 N 0.00 29.801
04/05/2003 5:30 a 36.6 36.6 36.6 36.7 36.6 94 35.0 2.0 7.0 NNW 0.00 29.798
04/05/2003 6:00 a 36.5 36.5 36.5 36.6 36.5 95 35.2 2.0 9.0 N 0.00 29.801
04/05/2003 6:30 a 36.6 36.6 36.6 36.7 36.5 95 35.3 2.0 7.0 NNW 0.00 29.800
04/05/2003 7:00 a 36.8 36.8 36.8 36.9 36.6 95 35.5 2.0 7.0 N 0.00 29.803
04/05/2003 7:30 a 36.9 36.9 36.9 37.0 36.8 95 35.6 2.0 6.0 N 0.00 29.797
04/05/2003 8:00 a 37.0 37.0 37.0 37.1 36.9 95 35.7 1.0 6.0 NNW 0.00 29.808
04/05/2003 8:30 a 37.2 37.2 37.2 37.5 37.0 95 35.9 1.0 6.0 NNW 0.01 29.807
04/05/2003 9:00 a 38.0 38.0 38.0 38.6 37.5 95 36.7 2.0 6.0 N 0.00 29.775
04/05/2003 9:30 a 38.7 38.7 38.7 38.9 38.5 94 37.1 1.0 6.0 N 0.00 29.788
04/05/2003 10:00 a 38.6 38.6 38.6 38.8 38.4 95 37.3 1.0 5.0 N 0.00 29.774
04/05/2003 10:30 a 38.9 38.9 38.9 39.1 38.7 94 37.3 1.0 5.0 NNE 0.00 29.784
04/05/2003 11:00 a 39.1 39.1 39.1 39.3 38.8 94 37.5 1.0 5.0 NNE 0.00 29.764
04/05/2003 11:30 a 39.4 39.4 39.4 39.8 38.9 94 37.8 1.0 5.0 N 0.00 29.738
04/05/2003 12:00 p 39.6 39.6 39.6 39.8 39.5 94 38.0 1.0 3.0 NNW 0.00 29.731
04/05/2003 12:30 p 39.7 39.7 39.7 40.3 39.3 94 38.1 1.0 4.0 N 0.00 29.689
04/05/2003 1:00 p 39.9 39.9 39.9 40.4 39.6 94 38.3 1.0 4.0 NNW 0.00 29.698
04/05/2003 1:30 p 39.6 39.6 39.6 39.9 39.3 94 38.0 0.0 3.0 NNW 0.00 29.721
04/05/2003 2:00 p 39.8 39.8 39.8 40.1 39.5 95 38.5 0.0 2.0 NNW 0.00 29.702
04/05/2003 2:30 p 40.4 40.4 40.4 40.7 40.1 95 39.1 0.0 2.0 NNW 0.00 29.693
04/05/2003 3:00 p 40.6 40.6 40.6 40.7 40.5 95 39.3 0.0 4.0 NE 0.00 29.680
04/05/2003 3:30 p 40.6 40.6 40.6 40.8 40.5 94 39.0 0.0 3.0 NNE 0.00 29.675
04/05/2003 4:00 p 40.5 40.5 40.5 40.6 40.3 95 39.2 0.0 3.0 N 0.00 29.672
04/05/2003 4:30 p 40.4 40.4 40.4 40.6 40.1 94 38.8 0.0 3.0 NNE 0.00 29.684
04/05/2003 5:00 p 40.3 40.3 40.3 40.4 40.1 95 39.0 0.0 1.0 NNE 0.00 29.704
04/05/2003 5:30 p 40.3 40.3 40.3 40.3 40.2 95 39.0 0.0 0.0 --- 0.00 29.726
04/05/2003 6:00 p 40.2 40.2 40.2 40.3 40.1 95 38.9 0.0 0.0 --- 0.00 29.724
04/05/2003 6:30 p 40.0 40.0 40.0 40.1 39.9 95 38.7 0.0 0.0 --- 0.00 29.727
04/05/2003 7:00 p 39.9 39.9 39.9 40.0 39.9 95 38.6 0.0 1.0 --- 0.00 29.742
04/05/2003 7:30 p 40.0 40.0 40.0 40.2 39.9 95 38.7 0.0 1.0 --- 0.00 29.746
04/05/2003 8:00 p 40.2 40.2 40.2 40.3 40.1 95 38.9 0.0 0.0 --- 0.00 29.757
04/05/2003 8:30 p 40.5 40.5 40.5 40.7 40.3 95 39.2 0.0 2.0 ESE 0.00 29.775
04/05/2003 9:00 p 40.7 40.7 40.7 40.7 40.6 95 39.4 0.0 0.0 --- 0.00 29.773
04/05/2003 9:30 p 40.6 40.6 40.6 40.7 40.4 95 39.3 0.0 0.0 --- 0.00 29.777
04/05/2003 10:00 p 40.4 40.4 40.4 40.6 40.3 95 39.1 0.0 0.0 --- 0.00 29.781
04/05/2003 10:30 p 40.7 40.7 40.7 40.8 40.6 95 39.4 0.0 2.0 SE 0.00 29.798
04/05/2003 11:00 p 40.7 40.7 40.7 40.8 40.1 96 39.7 0.0 2.0 SE 0.00 29.813
04/05/2003 11:30 p 38.6 38.6 38.6 40.1 37.6 95 37.3 0.0 0.0 --- 0.00 29.827
04/06/2003 12:00 a 38.3 38.3 38.3 38.7 37.6 94 36.7 0.0 3.0 E 0.00 29.843
04/06/2003 12:30 a 38.9 38.9 38.9 39.5 38.3 94 37.3 1.0 6.0 SSE 0.00 29.864
04/06/2003 1:00 a 40.4 40.4 40.4 41.0 39.5 94 38.8 1.0 4.0 SSE 0.00 29.883
04/06/2003 1:30 a 40.7 40.7 40.7 41.0 40.4 93 38.8 1.0 6.0 SSE 0.00 29.893
04/06/2003 2:00 a 40.0 40.0 40.0 40.5 39.0 92 37.9 1.0 7.0 SSE 0.00 29.903
04/06/2003 2:30 a 38.6 38.6 38.6 39.0 38.2 91 36.2 1.0 9.0 SSE 0.00 29.920
04/06/2003 3:00 a 37.5 37.5 37.5 38.2 37.1 88 34.3 1.0 6.0 SSE 0.00 29.943
04/06/2003 3:30 a 37.0 37.0 37.0 37.3 36.7 83 32.3 2.0 10.0 SSE 0.00 29.966
04/06/2003 4:00 a 36.3 36.3 36.3 36.8 35.8 80 30.7 3.0 12.0 SSE 0.00 29.998
04/06/2003 4:30 a 35.1 35.1 35.1 35.8 34.6 81 29.9 3.0 11.0 SSE 0.00 30.016
04/06/2003 5:00 a 34.3 34.3 34.3 34.8 33.7 76 27.5 3.0 12.0 SSE 0.00 30.037
04/06/2003 5:30 a 33.3 33.3 33.3 33.7 32.9 81 28.1 3.0 9.0 SSE 0.00 30.069
04/06/2003 6:00 a 32.4 32.4 32.4 33.0 32.2 75 25.4 2.0 8.0 SSE 0.00 30.079
04/06/2003 6:30 a 33.3 33.3 33.3 34.0 32.9 76 26.6 3.0 8.0 SSE 0.00 30.097
04/06/2003 7:00 a 34.2 34.2 34.2 35.7 33.7 70 25.5 3.0 14.0 SSE 0.00 30.117
04/06/2003 7:30 a 36.7 36.7 36.7 37.5 35.8 69 27.5 3.0 22.0 SSE 0.01 30.126
04/06/2003 8:00 a 42.0 42.0 42.0 46.9 36.5 53 26.1 3.0 14.0 SSW 0.00 30.140
04/06/2003 8:30 a 46.1 46.1 46.1 48.6 43.3 45 26.0 3.0 17.0 SSE 0.00 30.153
04/06/2003 9:00 a 44.8 44.8 44.8 46.3 43.8 39 21.4 4.0 14.0 SSE 0.00 30.165
04/06/2003 9:30 a 44.8 44.8 44.8 46.0 43.7 35 18.8 3.0 13.0 S 0.00 30.172
04/06/2003 10:00 a 45.0 45.0 45.0 46.5 43.9 34 18.3 4.0 12.0 SSE 0.00 30.180
04/06/2003 10:30 a 44.7 44.7 44.7 46.5 43.5 33 17.4 3.0 13.0 S 0.00 30.185
04/06/2003 11:00 a 46.8 46.8 46.8 48.8 43.9 33 19.2 3.0 12.0 SSE 0.00 30.197
04/06/2003 11:30 a 48.1 48.1 48.1 53.3 46.0 25 14.0 3.0 12.0 SSE 0.00 30.203
04/06/2003 12:00 p 54.6 54.6 54.6 55.2 53.4 23 17.6 3.0 10.0 S 0.00 30.203
04/06/2003 12:30 p 55.1 55.1 55.1 55.7 54.4 23 18.0 3.0 12.0 S 0.00 30.213
04/06/2003 1:00 p 53.6 53.6 53.6 55.4 52.5 24 17.7 2.0 8.0 SSE 0.00 30.216
04/06/2003 1:30 p 51.8 51.8 51.8 53.9 49.8 28 19.8 2.0 9.0 SSE 0.00 30.212
04/06/2003 2:00 p 48.7 48.7 48.7 49.8 48.2 31 19.4 2.0 8.0 SSE 0.00 30.199
04/06/2003 2:30 p 48.7 48.7 48.7 49.2 48.1 30 18.7 2.0 7.0 SSE 0.00 30.203
04/06/2003 3:00 p 49.2 49.2 49.2 49.4 48.9 27 16.7 1.0 7.0 SSE 0.00 30.213
04/06/2003 3:30 p 48.9 48.9 48.9 49.5 48.2 30 18.8 1.0 6.0 SSE 0.00 30.209
04/06/2003 4:00 p 48.4 48.4 48.4 48.9 47.8 27 16.0 1.0 6.0 SSE 0.00 30.225
04/06/2003 4:30 p 47.6 47.6 47.6 48.6 46.9 29 16.9 1.0 7.0 W 0.00 30.244
04/06/2003 5:00 p 46.2 46.2 46.2 46.9 45.6 31 17.3 1.0 6.0 W 0.00 30.258
04/06/2003 5:30 p 44.9 44.9 44.9 45.6 44.0 31 16.1 0.0 5.0 SSW 0.00 30.273
04/06/2003 6:00 p 43.6 43.6 43.6 44.1 42.7 33 16.4 1.0 4.0 SSW 0.00 30.297
04/06/2003 6:30 p 41.6 41.6 41.6 42.7 40.3 37 17.3 0.0 2.0 SSW 0.00 30.299
04/06/2003 7:00 p 38.8 38.8 38.8 40.3 37.6 44 18.8 0.0 0.0 --- 0.00 30.310
04/06/2003 7:30 p 37.2 37.2 37.2 37.7 36.6 52 21.2 0.0 0.0 --- 0.00 30.341
04/06/2003 8:00 p 36.2 36.2 36.2 36.9 35.7 47 17.9 0.0 0.0 --- 0.00 30.357
04/06/2003 8:30 p 37.3 37.3 37.3 37.6 36.9 46 18.4 0.0 1.0 --- 0.00 30.364
04/06/2003 9:00 p 36.7 36.7 36.7 37.0 36.3 49 19.4 0.0 0.0 --- 0.00 30.369
04/06/2003 9:30 p 36.3 36.3 36.3 36.6 36.0 48 18.5 0.0 1.0 --- 0.00 30.371
04/06/2003 10:00 p 37.3 37.3 37.3 37.7 36.5 46 18.4 0.0 2.0 SSW 0.00 30.373
04/06/2003 10:30 p 37.1 37.1 37.1 37.4 36.9 48 19.2 0.0 1.0 --- 0.00 30.384
04/06/2003 11:00 p 37.1 37.1 37.1 37.5 36.9 48 19.2 0.0 1.0 --- 0.00 30.392
04/06/2003 11:30 p 37.5 37.5 37.5 37.6 37.3 48 19.6 0.0 2.0 WSW 0.00 30.397
04/07/2003 12:00 a 37.7 37.7 37.7 37.8 37.5 50 20.8 0.0 2.0 WSW 0.00 30.399
04/07/2003 12:30 a 37.5 37.5 37.5 37.7 37.2 51 21.0 0.0 3.0 WNW 0.00 30.385
04/07/2003 1:00 a 37.2 37.2 37.2 37.3 37.1 50 20.3 0.0 2.0 WNW 0.00 30.376
04/07/2003 1:30 a 37.2 37.2 37.2 37.3 37.0 47 18.8 1.0 5.0 NW 0.00 30.382
04/07/2003 2:00 a 36.7 36.7 36.7 37.1 36.4 45 17.4 1.0 4.0 NW 0.00 30.393
04/07/2003 2:30 a 36.2 36.2 36.2 36.4 36.0 45 16.9 0.0 2.0 NW 0.00 30.393
04/07/2003 3:00 a 35.8 35.8 35.8 36.0 35.6 44 16.0 0.0 2.0 NW 0.00 30.411
04/07/2003 3:30 a 35.6 35.6 35.6 35.8 35.4 42 14.8 0.0 4.0 NW 0.00 30.408
04/07/2003 4:00 a 35.4 35.4 35.4 35.4 35.3 41 14.1 0.0 4.0 NW 0.00 30.397
04/07/2003 4:30 a 35.2 35.2 35.2 35.3 35.1 41 13.9 1.0 4.0 NW 0.00 30.402
04/07/2003 5:00 a 35.1 35.1 35.1 35.1 35.0 40 13.2 1.0 4.0 NW 0.00 30.393
04/07/2003 5:30 a 35.1 35.1 35.1 35.1 35.0 41 13.8 1.0 4.0 NW 0.00 30.390
04/07/2003 6:00 a 35.1 35.1 35.1 35.1 35.0 42 14.3 0.0 4.0 SW 0.00 30.404
04/07/2003 6:30 a 35.2 35.2 35.2 35.3 35.1 43 15.0 0.0 3.0 NW 0.00 30.422
04/07/2003 7:00 a 35.4 35.4 35.4 35.5 35.3 43 15.1 0.0 2.0 N 0.00 30.443
04/07/2003 7:30 a 35.7 35.7 35.7 35.9 35.5 44 15.9 0.0 4.0 N 0.00 30.438
04/07/2003 8:00 a 35.4 35.4 35.4 35.9 34.6 64 24.4 1.0 8.0 NNW 0.00 30.437
04/07/2003 8:30 a 34.1 34.1 34.1 34.6 33.7 68 24.7 1.0 5.0 N 0.00 30.444
04/07/2003 9:00 a 32.5 32.5 32.5 33.8 31.5 86 28.8 1.0 6.0 NW 0.00 30.443
04/07/2003 9:30 a 31.3 31.3 31.3 31.6 31.2 88 28.2 1.0 4.0 NNW 0.00 30.434
04/07/2003 10:00 a 31.2 31.2 31.2 31.3 31.1 89 28.3 1.0 3.0 NW 0.00 30.426
04/07/2003 10:30 a 31.4 31.4 31.4 31.7 31.2 91 29.1 1.0 3.0 NNW 0.00 30.422
04/07/2003 11:00 a 31.7 31.7 31.7 31.7 31.6 91 29.4 0.0 2.0 NW 0.00 30.405
04/07/2003 11:30 a 31.6 31.6 31.6 31.7 31.5 92 29.5 0.0 0.0 --- 0.00 30.397
04/07/2003 12:00 p 31.6 31.6 31.6 31.7 31.6 92 29.5 0.0 0.0 --- 0.00 30.392
04/07/2003 12:30 p 31.6 31.6 31.6 31.8 31.5 92 29.5 0.0 0.0 --- 0.00 30.383
04/07/2003 1:00 p 31.9 31.9 31.9 32.2 31.6 92 29.8 0.0 0.0 --- 0.00 30.371
04/07/2003 1:30 p 32.2 32.2 32.2 32.3 32.1 92 30.1 0.0 0.0 --- 0.00 30.370
04/07/2003 2:00 p 32.0 32.0 32.0 32.2 31.9 92 29.9 0.0 0.0 --- 0.00 30.349
04/07/2003 2:30 p 31.7 31.7 31.7 31.9 31.4 93 29.9 0.0 0.0 --- 0.00 30.334
04/07/2003 3:00 p 31.4 31.4 31.4 31.5 31.3 93 29.6 0.0 0.0 --- 0.00 30.305
04/07/2003 3:30 p 31.3 31.3 31.3 31.4 31.1 92 29.3 0.0 0.0 --- 0.00 30.284
04/07/2003 4:00 p 31.2 31.2 31.2 31.3 31.1 93 29.4 0.0 0.0 --- 0.00 30.272
04/07/2003 4:30 p 31.3 31.3 31.3 31.5 31.1 92 29.3 0.0 0.0 --- 0.00 30.258
04/07/2003 5:00 p 31.6 31.6 31.6 31.7 31.4 93 29.8 0.0 0.0 --- 0.00 30.266
04/07/2003 5:30 p 31.8 31.8 31.8 31.9 31.7 93 30.0 0.0 0.0 --- 0.00 30.244
04/07/2003 6:00 p 31.8 31.8 31.8 31.9 31.7 93 30.0 0.0 0.0 --- 0.00 30.247
04/07/2003 6:30 p 31.7 31.7 31.7 31.8 31.7 93 29.9 0.0 0.0 --- 0.00 30.241
04/07/2003 7:00 p 31.8 31.8 31.8 31.9 31.8 93 30.0 0.0 0.0 --- 0.00 30.239
04/07/2003 7:30 p 31.9 31.9 31.9 32.0 31.8 93 30.1 0.0 1.0 NNW 0.00 30.264
04/07/2003 8:00 p 31.9 31.9 31.9 32.0 31.9 94 30.4 0.0 2.0 NNW 0.00 30.254
04/07/2003 8:30 p 32.0 32.0 32.0 32.0 31.9 93 30.2 1.0 3.0 NW 0.00 30.254
04/07/2003 9:00 p 32.0 32.0 32.0 32.1 32.0 93 30.2 1.0 4.0 NNW 0.00 30.225
04/07/2003 9:30 p 32.1 32.1 32.1 32.2 32.0 93 30.3 2.0 5.0 NW 0.00 30.187
04/07/2003 10:00 p 32.3 32.3 32.3 32.4 32.2 94 30.8 2.0 6.0 NW 0.00 30.208
04/07/2003 10:30 p 32.3 32.3 32.3 32.5 32.3 94 30.8 1.0 4.0 NW 0.00 30.204
04/07/2003 11:00 p 32.3 32.3 32.3 32.4 32.2 94 30.8 1.0 4.0 NW 0.00 30.190
04/07/2003 11:30 p 32.3 32.3 32.3 32.3 32.2 94 30.8 1.0 4.0 NW 0.00 30.197
04/08/2003 12:00 a 32.1 32.1 32.1 32.3 32.0 94 30.6 1.0 5.0 NW 0.00 30.196
04/08/2003 12:30 a 32.0 32.0 32.0 32.0 31.9 94 30.5 1.0 4.0 NW 0.01 30.179
04/08/2003 1:00 a 31.9 31.9 31.9 32.0 31.9 94 30.4 1.0 5.0 NNW 0.00 30.160
04/08/2003 1:30 a 31.9 31.9 31.9 32.0 31.9 94 30.4 1.0 4.0 NW 0.00 30.161
04/08/2003 2:00 a 31.9 31.9 31.9 32.0 31.9 94 30.4 1.0 4.0 NW 0.00 30.173
04/08/2003 2:30 a 31.8 31.8 31.8 31.9 31.7 94 30.3 1.0 4.0 NW 0.00 30.174
04/08/2003 3:00 a 31.7 31.7 31.7 31.8 31.7 94 30.2 1.0 3.0 NW 0.00 30.182
04/08/2003 3:30 a 31.7 31.7 31.7 31.7 31.6 94 30.2 1.0 4.0 NNW 0.00 30.193
04/08/2003 4:00 a 31.6 31.6 31.6 31.7 31.4 94 30.1 1.0 4.0 NW 0.00 30.184
04/08/2003 4:30 a 31.3 31.3 31.3 31.5 31.1 94 29.8 1.0 4.0 NW 0.01 30.188
04/08/2003 5:00 a 31.1 31.1 31.1 31.2 31.1 94 29.6 1.0 4.0 NW 0.00 30.204
04/08/2003 5:30 a 31.0 31.0 31.0 31.1 31.0 94 29.5 0.0 3.0 NW 0.00 30.206
04/08/2003 6:00 a 30.9 30.9 30.9 31.0 30.9 94 29.4 1.0 4.0 NW 0.00 30.218
04/08/2003 6:30 a 31.0 31.0 31.0 31.1 30.9 94 29.5 1.0 4.0 NW 0.00 30.221
04/08/2003 7:00 a 31.1 31.1 31.1 31.3 31.0 93 29.3 1.0 5.0 NW 0.00 30.222
04/08/2003 7:30 a 31.4 31.4 31.4 31.7 31.3 94 29.9 1.0 4.0 NW 0.00 30.228
04/08/2003 8:00 a 31.8 31.8 31.8 32.0 31.7 94 30.3 1.0 4.0 NW 0.00 30.238
04/08/2003 8:30 a 32.1 32.1 32.1 32.3 31.9 93 30.3 1.0 7.0 NNW 0.00 30.234
04/08/2003 9:00 a 32.3 32.3 32.3 32.4 32.2 92 30.2 1.0 4.0 NW 0.00 30.232
04/08/2003 9:30 a 32.6 32.6 32.6 32.9 32.3 92 30.5 1.0 3.0 NW 0.00 30.222
04/08/2003 10:00 a 33.3 33.3 33.3 33.6 32.9 91 31.0 1.0 4.0 NW 0.00 30.224
04/08/2003 10:30 a 34.0 34.0 34.0 34.7 33.6 91 31.7 0.0 4.0 NNW 0.00 30.236
04/08/2003 11:00 a 34.7 34.7 34.7 34.9 34.4 91 32.3 0.0 2.0 NNW 0.01 30.243
04/08/2003 11:30 a 35.0 35.0 35.0 35.5 34.6 91 32.6 0.0 2.0 NNW 0.00 30.233
04/08/2003 12:00 p 35.7 35.7 35.7 36.0 35.3 91 33.3 0.0 2.0 NNW 0.02 30.223
04/08/2003 12:30 p 35.7 35.7 35.7 36.0 35.4 90 33.1 0.0 3.0 NNW 0.01 30.208
04/08/2003 1:00 p 35.9 35.9 35.9 36.1 35.7 90 33.3 0.0 2.0 NW 0.01 30.199
04/08/2003 1:30 p 35.8 35.8 35.8 36.0 35.6 90 33.2 0.0 3.0 NNW 0.02 30.199
04/08/2003 2:00 p 35.7 35.7 35.7 35.9 35.5 91 33.3 0.0 2.0 NNE 0.02 30.187
04/08/2003 2:30 p 35.5 35.5 35.5 35.7 35.3 91 33.1 0.0 2.0 N 0.01 30.177
04/08/2003 3:00 p 35.9 35.9 35.9 36.2 35.5 91 33.5 0.0 3.0 NNW 0.03 30.182
04/08/2003 3:30 p 35.9 35.9 35.9 36.0 35.7 91 33.5 0.0 2.0 ENE 0.02 30.171
04/08/2003 4:00 p 36.1 36.1 36.1 36.2 35.9 92 34.0 0.0 2.0 ENE 0.01 30.180
04/08/2003 4:30 p 36.1 36.1 36.1 36.3 35.9 92 34.0 0.0 1.0 ENE 0.02 30.189
04/08/2003 5:00 p 35.6 35.6 35.6 35.9 35.3 93 33.8 0.0 1.0 ENE 0.02 30.189
04/08/2003 5:30 p 35.0 35.0 35.0 35.3 34.9 94 33.5 0.0 0.0 --- 0.01 30.166
04/08/2003 6:00 p 34.8 34.8 34.8 35.0 34.5 94 33.3 0.0 1.0 ENE 0.01 30.159
04/08/2003 6:30 p 34.3 34.3 34.3 34.5 34.2 94 32.8 0.0 1.0 --- 0.01 30.160
04/08/2003 7:00 p 34.2 34.2 34.2 34.3 34.1 94 32.7 0.0 1.0 ENE 0.01 30.174
04/08/2003 7:30 p 34.1 34.1 34.1 34.1 34.0 95 32.8 0.0 0.0 --- 0.01 30.187
04/08/2003 8:00 p 34.0 34.0 34.0 34.1 33.9 94 32.5 0.0 1.0 --- 0.00 30.178
04/08/2003 8:30 p 33.9 33.9 33.9 34.0 33.9 94 32.4 0.0 1.0 ENE 0.01 30.163
04/08/2003 9:00 p 34.0 34.0 34.0 34.1 33.9 95 32.7 0.0 0.0 --- 0.00 30.165
04/08/2003 9:30 p 34.0 34.0 34.0 34.1 33.9 94 32.5 0.0 1.0 ENE 0.01 30.153
04/08/2003 10:00 p 33.9 33.9 33.9 34.0 33.9 94 32.4 0.0 0.0 --- 0.00 30.148
04/08/2003 10:30 p 33.9 33.9 33.9 34.0 33.9 95 32.6 0.0 2.0 ENE 0.01 30.134
04/08/2003 11:00 p 34.0 34.0 34.0 34.0 33.9 94 32.5 0.0 2.0 ENE 0.01 30.128
04/08/2003 11:30 p 34.0 34.0 34.0 34.0 34.0 95 32.7 0.0 1.0 ENE 0.00 30.126
04/09/2003 12:00 a 34.1 34.1 34.1 34.1 34.0 95 32.8 0.0 1.0 ENE 0.01 30.123
04/09/2003 12:30 a 34.0 34.0 34.0 34.1 34.0 95 32.7 0.0 2.0 N 0.00 30.117
04/09/2003 1:00 a 34.0 34.0 34.0 34.0 34.0 95 32.7 0.0 2.0 N 0.01 30.101
04/09/2003 1:30 a 34.0 34.0 34.0 34.0 33.9 95 32.7 0.0 2.0 N 0.00 30.098
04/09/2003 2:00 a 34.0 34.0 34.0 34.0 34.0 95 32.7 0.0 1.0 N 0.01 30.100
04/09/2003 2:30 a 34.0 34.0 34.0 34.0 33.9 95 32.7 0.0 1.0 N 0.00 30.101
04/09/2003 3:00 a 34.0 34.0 34.0 34.0 33.9 95 32.7 0.0 2.0 N 0.01 30.098
04/09/2003 3:30 a 33.9 33.9 33.9 34.0 33.9 95 32.6 0.0 1.0 N 0.00 30.079
04/09/2003 4:00 a 33.9 33.9 33.9 33.9 33.9 95 32.6 0.0 1.0 N 0.01 30.077
04/09/2003 4:30 a 33.9 33.9 33.9 34.1 33.9 95 32.6 0.0 3.0 NW 0.00 30.068
04/09/2003 5:00 a 34.0 34.0 34.0 34.1 33.9 95 32.7 0.0 3.0 NW 0.00 30.054
04/09/2003 5:30 a 33.9 33.9 33.9 34.0 33.9 95 32.6 0.0 4.0 NW 0.01 30.052
04/09/2003 6:00 a 33.9 33.9 33.9 33.9 33.8 95 32.6 0.0 2.0 NW 0.01 30.051
04/09/2003 6:30 a 34.0 34.0 34.0 34.1 33.9 95 32.7 0.0 2.0 NW 0.04 30.051
04/09/2003 7:00 a 34.2 34.2 34.2 34.4 34.0 95 32.9 0.0 2.0 NW 0.03 30.043
04/09/2003 7:30 a 34.6 34.6 34.6 34.7 34.4 95 33.3 0.0 3.0 NW 0.03 30.043
04/09/2003 8:00 a 34.9 34.9 34.9 35.1 34.7 95 33.6 0.0 2.0 N 0.03 30.043
04/09/2003 8:30 a 35.4 35.4 35.4 35.6 35.1 95 34.1 0.0 2.0 NNW 0.04 30.041
04/09/2003 9:00 a 35.8 35.8 35.8 35.9 35.6 95 34.5 0.0 2.0 NNW 0.03 30.041
04/09/2003 9:30 a 36.0 36.0 36.0 36.3 35.9 95 34.7 0.0 3.0 WSW 0.02 30.033
04/09/2003 10:00 a 36.4 36.4 36.4 36.6 36.1 95 35.1 0.0 3.0 NNW 0.02 30.031
04/09/2003 10:30 a 36.7 36.7 36.7 37.2 36.3 94 35.1 0.0 3.0 WNW 0.02 30.020
04/09/2003 11:00 a 37.5 37.5 37.5 37.7 37.2 94 35.9 1.0 3.0 WNW 0.02 30.011
04/09/2003 11:30 a 37.6 37.6 37.6 37.7 37.4 94 36.0 1.0 3.0 NW 0.03 30.012
04/09/2003 12:00 p 37.6 37.6 37.6 37.9 37.4 94 36.0 0.0 4.0 NW 0.02 30.010
04/09/2003 12:30 p 37.8 37.8 37.8 37.9 37.7 94 36.2 0.0 2.0 NW 0.03 30.006
04/09/2003 1:00 p 37.7 37.7 37.7 37.8 37.6 94 36.1 1.0 3.0 NW 0.03 29.998
04/09/2003 1:30 p 38.1 38.1 38.1 38.3 37.7 95 36.8 0.0 2.0 W 0.02 29.990
04/09/2003 2:00 p 38.0 38.0 38.0 38.2 37.9 95 36.7 0.0 3.0 NNW 0.02 29.968
04/09/2003 2:30 p 37.9 37.9 37.9 38.0 37.8 94 36.3 1.0 4.0 NW 0.02 29.966
04/09/2003 3:00 p 38.0 38.0 38.0 38.1 37.8 95 36.7 1.0 4.0 W 0.02 29.959
04/09/2003 3:30 p 38.3 38.3 38.3 38.6 38.1 95 37.0 0.0 4.0 SW 0.01 29.965
04/09/2003 4:00 p 38.7 38.7 38.7 38.9 38.4 95 37.4 0.0 4.0 WNW 0.01 29.973
04/09/2003 4:30 p 38.3 38.3 38.3 38.4 38.2 95 37.0 0.0 3.0 SSW 0.01 29.966
04/09/2003 5:00 p 38.1 38.1 38.1 38.3 38.0 95 36.8 0.0 2.0 SW 0.01 29.978
04/09/2003 5:30 p 38.0 38.0 38.0 38.0 37.9 95 36.7 0.0 2.0 NW 0.01 29.984
04/09/2003 6:00 p 37.9 37.9 37.9 37.9 37.7 95 36.6 0.0 2.0 NW 0.00 29.993
04/09/2003 6:30 p 37.7 37.7 37.7 37.8 37.5 95 36.4 0.0 2.0 WSW 0.01 29.986
04/09/2003 7:00 p 37.5 37.5 37.5 37.6 37.4 95 36.2 0.0 2.0 WSW 0.01 29.999
04/09/2003 7:30 p 37.4 37.4 37.4 37.5 37.3 95 36.1 0.0 2.0 WSW 0.00 30.005
04/09/2003 8:00 p 37.2 37.2 37.2 37.3 37.1 95 35.9 0.0 1.0 WSW 0.00 30.020
04/09/2003 8:30 p 37.3 37.3 37.3 37.4 37.2 95 36.0 0.0 2.0 WSW 0.01 30.011
04/09/2003 9:00 p 37.2 37.2 37.2 37.2 37.1 95 35.9 0.0 2.0 WSW 0.00 30.008
04/09/2003 9:30 p 37.2 37.2 37.2 37.2 37.1 95 35.9 0.0 2.0 WSW 0.00 30.007
04/09/2003 10:00 p 37.1 37.1 37.1 37.1 36.9 95 35.8 0.0 1.0 WSW 0.01 30.011
04/09/2003 10:30 p 36.5 36.5 36.5 36.9 35.8 95 35.2 0.0 1.0 WSW 0.00 30.001
04/09/2003 11:00 p 35.0 35.0 35.0 35.8 34.1 95 33.7 0.0 0.0 --- 0.00 29.996
04/09/2003 11:30 p 33.4 33.4 33.4 34.1 32.7 94 31.9 0.0 0.0 --- 0.00 30.017
04/10/2003 12:00 a 32.5 32.5 32.5 32.7 32.3 94 31.0 0.0 0.0 --- 0.00 30.016
04/10/2003 12:30 a 32.3 32.3 32.3 32.4 32.2 94 30.8 0.0 0.0 --- 0.00 30.028
04/10/2003 1:00 a 31.9 31.9 31.9 32.3 31.4 94 30.4 0.0 0.0 --- 0.00 30.027
04/10/2003 1:30 a 31.3 31.3 31.3 31.4 31.0 94 29.8 0.0 0.0 --- 0.00 30.013
04/10/2003 2:00 a 31.4 31.4 31.4 31.7 31.1 94 29.9 0.0 0.0 --- 0.00 30.011
04/10/2003 2:30 a 31.1 31.1 31.1 31.2 30.9 94 29.6 0.0 0.0 --- 0.00 30.021
04/10/2003 3:00 a 31.5 31.5 31.5 31.8 31.2 94 30.0 0.0 0.0 --- 0.00 30.015
04/10/2003 3:30 a 30.9 30.9 30.9 31.3 30.5 94 29.4 0.0 0.0 --- 0.00 30.027
04/10/2003 4:00 a 31.4 31.4 31.4 31.9 30.6 94 29.9 0.0 0.0 --- 0.00 30.035
04/10/2003 4:30 a 31.8 31.8 31.8 32.0 31.7 94 30.3 0.0 1.0 WSW 0.00 30.024
04/10/2003 5:00 a 31.6 31.6 31.6 31.9 31.4 94 30.1 0.0 1.0 --- 0.00 30.040
04/10/2003 5:30 a 32.0 32.0 32.0 32.6 31.5 94 30.5 0.0 1.0 WSW 0.00 30.048
04/10/2003 6:00 a 33.2 33.2 33.2 33.8 32.6 95 31.9 0.0 2.0 WSW 0.00 30.035
04/10/2003 6:30 a 34.5 34.5 34.5 35.3 33.8 94 33.0 1.0 3.0 WSW 0.00 30.042
04/10/2003 7:00 a 36.3 36.3 36.3 37.3 35.3 94 34.7 1.0 3.0 NNW 0.00 30.046
04/10/2003 7:30 a 38.0 38.0 38.0 38.6 37.3 93 36.2 1.0 4.0 W 0.00 30.047
04/10/2003 8:00 a 39.7 39.7 39.7 40.8 38.6 92 37.6 1.0 4.0 NW 0.00 30.053
04/10/2003 8:30 a 42.0 42.0 42.0 42.5 40.8 92 39.8 1.0 3.0 WSW 0.01 30.043
04/10/2003 9:00 a 43.5 43.5 43.5 44.6 42.3 90 40.8 1.0 5.0 NW 0.00 30.046
04/10/2003 9:30 a 44.8 44.8 44.8 45.6 44.0 90 42.1 1.0 5.0 NNW 0.00 30.036
04/10/2003 10:00 a 45.6 45.6 45.6 46.7 44.8 87 42.0 1.0 6.0 NW 0.00 30.030
04/10/2003 10:30 a 47.7 47.7 47.7 48.5 46.8 80 41.8 1.0 5.0 NW 0.00 30.034
04/10/2003 11:00 a 49.2 49.2 49.2 50.8 47.5 74 41.3 1.0 5.0 NW 0.00 30.026
04/10/2003 11:30 a 51.0 51.0 51.0 53.0 50.0 69 41.2 1.0 4.0 NW 0.00 30.030
04/10/2003 12:00 p 53.3 53.3 53.3 54.0 52.6 65 41.8 2.0 5.0 NW 0.00 30.019
04/10/2003 12:30 p 53.3 53.3 53.3 54.3 52.5 58 38.9 1.0 4.0 NW 0.00 30.013
04/10/2003 1:00 p 53.2 53.2 53.2 54.3 52.4 62 40.5 2.0 5.0 N 0.00 29.998
04/10/2003 1:30 p 52.5 52.5 52.5 52.8 52.0 67 41.9 2.0 6.0 NNW 0.00 29.972
04/10/2003 2:00 p 51.8 51.8 51.8 52.0 51.5 67 41.2 2.0 6.0 N 0.00 29.979
04/10/2003 2:30 p 51.9 51.9 51.9 52.9 51.3 60 38.5 2.0 8.0 N 0.00 29.972
04/10/2003 3:00 p 51.1 51.1 51.1 52.9 49.8 56 36.0 2.0 7.0 N 0.00 29.972
04/10/2003 3:30 p 49.3 49.3 49.3 49.8 48.4 53 32.9 2.0 6.0 N 0.00 29.974
04/10/2003 4:00 p 47.7 47.7 47.7 48.4 46.8 56 32.8 2.0 6.0 N 0.00 29.973
04/10/2003 4:30 p 46.6 46.6 46.6 46.8 46.1 58 32.6 1.0 4.0 N 0.00 29.961
04/10/2003 5:00 p 45.5 45.5 45.5 46.1 44.7 62 33.3 1.0 5.0 N 0.00 29.961
04/10/2003 5:30 p 44.0 44.0 44.0 44.7 43.6 66 33.4 1.0 4.0 N 0.00 29.944
04/10/2003 6:00 p 42.9 42.9 42.9 43.6 42.1 68 33.1 1.0 4.0 N 0.00 29.942
04/10/2003 6:30 p 41.5 41.5 41.5 42.1 41.0 73 33.5 1.0 4.0 N 0.00 29.939
04/10/2003 7:00 p 40.8 40.8 40.8 41.0 40.6 74 33.2 1.0 4.0 NNE 0.00 29.953
04/10/2003 7:30 p 40.5 40.5 40.5 40.7 40.1 76 33.5 1.0 3.0 NNE 0.00 29.940
04/10/2003 8:00 p 39.9 39.9 39.9 40.2 39.7 77 33.3 1.0 6.0 N 0.00 29.976
04/10/2003 8:30 p 39.7 39.7 39.7 40.0 39.3 79 33.7 2.0 6.0 N 0.00 29.980
04/10/2003 9:00 p 39.2 39.2 39.2 39.4 39.0 80 33.6 1.0 5.0 N 0.00 29.957
04/10/2003 9:30 p 39.0 39.0 39.0 39.2 38.5 81 33.7 1.0 4.0 N 0.00 29.957
04/10/2003 10:00 p 38.7 38.7 38.7 38.8 38.5 80 33.1 0.0 3.0 NNE 0.00 29.952
04/10/2003 10:30 p 38.5 38.5 38.5 38.7 38.2 81 33.2 0.0 3.0 NNE 0.00 29.939
04/10/2003 11:00 p 38.0 38.0 38.0 38.2 37.9 80 32.4 0.0 1.0 NNE 0.00 29.934
04/10/2003 11:30 p 38.6 38.6 38.6 38.9 38.2 77 32.0 0.0 1.0 N 0.00 29.929
04/11/2003 12:00 a 39.1 39.1 39.1 39.5 38.9 72 30.8 0.0 2.0 N 0.00 29.929
04/11/2003 12:30 a 40.2 40.2 40.2 40.4 39.5 69 30.9 1.0 3.0 NW 0.00 29.891
04/11/2003 1:00 a 40.6 40.6 40.6 40.8 40.3 63 29.0 1.0 4.0 NW 0.00 29.881
04/11/2003 1:30 a 40.4 40.4 40.4 40.8 39.9 67 30.3 1.0 5.0 NW 0.00 29.858
04/11/2003 2:00 a 39.8 39.8 39.8 39.9 39.8 67 29.8 2.0 5.0 NNW 0.00 29.856
04/11/2003 2:30 a 39.8 39.8 39.8 39.9 39.8 68 30.1 2.0 5.0 NW 0.00 29.843
04/11/2003 3:00 a 39.7 39.7 39.7 39.8 39.6 69 30.4 1.0 6.0 NW 0.00 29.853
04/11/2003 3:30 a 39.4 39.4 39.4 39.7 39.3 73 31.5 2.0 7.0 NW 0.00 29.834
04/11/2003 4:00 a 39.1 39.1 39.1 39.3 39.0 77 32.5 2.0 6.0 NW 0.00 29.827
04/11/2003 4:30 a 38.7 38.7 38.7 39.0 37.9 87 35.2 2.0 7.0 NW 0.00 29.808
04/11/2003 5:00 a 38.0 38.0 38.0 38.2 37.7 90 35.3 2.0 7.0 NW 0.00 29.788
04/11/2003 5:30 a 37.4 37.4 37.4 37.7 37.3 92 35.3 2.0 5.0 NNW 0.01 29.791
04/11/2003 6:00 a 37.8 37.8 37.8 38.0 37.5 92 35.7 2.0 5.0 NW 0.00 29.786
04/11/2003 6:30 a 38.0 38.0 38.0 38.1 37.9 92 35.9 2.0 5.0 NW 0.00 29.794
04/11/2003 7:00 a 38.5 38.5 38.5 39.0 38.0 92 36.4 2.0 6.0 NW 0.00 29.785
04/11/2003 7:30 a 39.1 39.1 39.1 39.2 38.8 92 37.0 2.0 6.0 NW 0.01 29.775
04/11/2003 8:00 a 38.7 38.7 38.7 38.9 38.6 93 36.9 2.0 6.0 NW 0.02 29.780
04/11/2003 8:30 a 39.0 39.0 39.0 39.3 38.9 94 37.4 2.0 6.0 NW 0.02 29.752
04/11/2003 9:00 a 39.3 39.3 39.3 39.4 39.1 94 37.7 2.0 7.0 NW 0.00 29.733
04/11/2003 9:30 a 39.4 39.4 39.4 39.5 39.3 95 38.1 2.0 7.0 NW 0.03 29.718
04/11/2003 10:00 a 40.0 40.0 40.0 40.5 39.4 94 38.4 2.0 7.0 NW 0.02 29.709
04/11/2003 10:30 a 41.0 41.0 41.0 41.3 40.5 94 39.4 2.0 6.0 NW 0.00 29.687
04/11/2003 11:00 a 42.0 42.0 42.0 42.5 41.3 94 40.4 2.0 7.0 NW 0.00 29.674
04/11/2003 11:30 a 42.2 42.2 42.2 42.6 42.0 94 40.6 2.0 6.0 NW 0.01 29.659
04/11/2003 12:00 p 42.3 42.3 42.3 42.6 42.2 94 40.7 2.0 5.0 NW 0.01 29.656
04/11/2003 12:30 p 42.4 42.4 42.4 42.8 42.2 95 41.1 1.0 4.0 NW 0.00 29.642
04/11/2003 1:00 p 43.2 43.2 43.2 43.4 42.8 95 41.9 1.0 4.0 NW 0.00 29.616
04/11/2003 1:30 p 43.8 43.8 43.8 44.1 43.4 95 42.5 1.0 5.0 NW 0.00 29.608
04/11/2003 2:00 p 44.3 44.3 44.3 44.5 44.0 95 43.0 1.0 4.0 NW 0.00 29.604
04/11/2003 2:30 p 44.7 44.7 44.7 45.0 44.5 95 43.4 0.0 4.0 NW 0.01 29.590
04/11/2003 3:00 p 45.4 45.4 45.4 45.7 44.9 95 44.1 1.0 5.0 NW 0.01 29.568
04/11/2003 3:30 p 45.6 45.6 45.6 45.7 45.5 95 44.3 1.0 3.0 WNW 0.00 29.559
04/11/2003 4:00 p 45.5 45.5 45.5 45.6 45.4 95 44.2 1.0 4.0 NW 0.00 29.553
04/11/2003 4:30 p 45.2 45.2 45.2 45.4 44.9 95 43.9 1.0 4.0 WNW 0.00 29.556
04/11/2003 5:00 p 44.7 44.7 44.7 44.9 44.6 95 43.4 1.0 3.0 W 0.00 29.553
04/11/2003 5:30 p 44.6 44.6 44.6 44.7 44.3 95 43.3 0.0 3.0 W 0.00 29.550
04/11/2003 6:00 p 44.2 44.2 44.2 44.4 44.0 95 42.9 0.0 4.0 WSW 0.01 29.547
04/11/2003 6:30 p 43.9 43.9 43.9 44.1 43.8 95 42.6 0.0 4.0 W 0.00 29.543
04/11/2003 7:00 p 43.7 43.7 43.7 43.8 43.6 96 42.6 0.0 3.0 WSW 0.00 29.533
04/11/2003 7:30 p 43.6 43.6 43.6 43.7 43.6 96 42.5 0.0 3.0 WSW 0.00 29.524
04/11/2003 8:00 p 43.7 43.7 43.7 43.7 43.6 96 42.6 0.0 3.0 W 0.00 29.516
04/11/2003 8:30 p 43.6 43.6 43.6 43.7 43.4 96 42.5 0.0 5.0 W 0.00 29.506
04/11/2003 9:00 p 43.2 43.2 43.2 43.4 43.0 96 42.1 0.0 3.0 W 0.00 29.490
04/11/2003 9:30 p 43.0 43.0 43.0 43.0 42.9 96 41.9 0.0 3.0 WSW 0.00 29.467
04/11/2003 10:00 p 42.9 42.9 42.9 42.9 42.9 96 41.8 0.0 3.0 WSW 0.00 29.448
04/11/2003 10:30 p 42.9 42.9 42.9 42.9 42.9 96 41.8 0.0 2.0 W 0.00 29.436
04/11/2003 11:00 p 43.0 43.0 43.0 43.1 42.9 96 41.9 0.0 3.0 WSW 0.00 29.421
04/11/2003 11:30 p 43.1 43.1 43.1 43.2 43.1 96 42.0 1.0 4.0 WSW 0.00 29.408
04/12/2003 12:00 a 43.2 43.2 43.2 43.3 43.2 96 42.1 0.0 3.0 WSW 0.01 29.384
04/12/2003 12:30 a 43.3 43.3 43.3 43.4 43.3 96 42.2 0.0 2.0 SW 0.00 29.375
04/12/2003 1:00 a 43.5 43.5 43.5 43.7 43.4 96 42.4 0.0 3.0 SW 0.01 29.367
04/12/2003 1:30 a 43.8 43.8 43.8 43.9 43.6 95 42.5 0.0 2.0 WSW 0.00 29.357
04/12/2003 2:00 a 44.1 44.1 44.1 44.3 43.9 96 43.0 0.0 3.0 S 0.00 29.338
04/12/2003 2:30 a 44.6 44.6 44.6 44.8 44.3 96 43.5 0.0 5.0 SSW 0.00 29.345
04/12/2003 3:00 a 44.9 44.9 44.9 45.0 44.8 96 43.8 0.0 4.0 WSW 0.02 29.345
04/12/2003 3:30 a 44.8 44.8 44.8 44.9 44.7 96 43.7 0.0 3.0 SW 0.04 29.349
04/12/2003 4:00 a 44.7 44.7 44.7 44.8 44.6 96 43.6 0.0 2.0 WSW 0.06 29.346
04/12/2003 4:30 a 44.7 44.7 44.7 44.9 44.7 96 43.6 1.0 3.0 W 0.06 29.352
04/12/2003 5:00 a 45.0 45.0 45.0 45.2 44.8 97 44.2 0.0 4.0 WSW 0.03 29.358
04/12/2003 5:30 a 45.3 45.3 45.3 45.5 45.2 97 44.5 1.0 3.0 WSW 0.03 29.361
04/12/2003 6:00 a 45.7 45.7 45.7 45.9 45.5 96 44.6 1.0 5.0 S 0.00 29.366
04/12/2003 6:30 a 46.0 46.0 46.0 46.2 45.8 97 45.2 1.0 4.0 S 0.06 29.365
04/12/2003 7:00 a 46.8 46.8 46.8 47.4 46.2 96 45.7 1.0 5.0 S 0.01 29.365
04/12/2003 7:30 a 47.8 47.8 47.8 48.0 47.4 97 47.0 1.0 8.0 SSW 0.01 29.378
04/12/2003 8:00 a 48.0 48.0 48.0 48.7 47.7 97 47.2 1.0 5.0 SSW 0.02 29.393
04/12/2003 8:30 a 49.3 49.3 49.3 49.9 48.7 97 48.5 1.0 5.0 SSW 0.00 29.408
04/12/2003 9:00 a 50.7 50.7 50.7 51.6 49.9 97 49.9 1.0 7.0 S 0.00 29.422
04/12/2003 9:30 a 52.8 52.8 52.8 53.8 51.6 96 51.7 1.0 6.0 S 0.00 29.425
04/12/2003 10:00 a 55.0 55.0 55.0 56.0 53.8 95 53.6 1.0 10.0 S 0.00 29.433
04/12/2003 10:30 a 56.8 56.8 56.8 57.1 56.0 93 54.8 1.0 4.0 WNW 0.00 29.438
04/12/2003 11:00 a 56.5 56.5 56.5 57.3 56.2 92 54.2 1.0 7.0 S 0.00 29.447
04/12/2003 11:30 a 58.9 58.9 58.9 62.3 57.3 87 55.0 1.0 5.0 S 0.00 29.447
04/12/2003 12:00 p 65.8 65.8 65.8 67.0 62.5 78 58.8 1.0 7.0 SSW 0.00 29.443
04/12/2003 12:30 p 69.6 68.8 68.8 69.8 67.0 73 59.8 2.0 7.0 SSE 0.00 29.447
04/12/2003 1:00 p 68.0 68.4 68.4 71.3 66.2 62 54.9 2.0 10.0 SSE 0.00 29.451
04/12/2003 1:30 p 68.4 70.3 70.3 72.0 67.7 52 51.9 2.0 11.0 SSE 0.00 29.445
04/12/2003 2:00 p 66.8 66.8 66.8 67.7 66.4 49 47.0 2.0 11.0 SSE 0.00 29.435
04/12/2003 2:30 p 67.4 67.4 67.4 67.8 67.0 33 37.3 2.0 9.0 SSE 0.00 29.440
04/12/2003 3:00 p 67.7 67.7 67.7 68.0 67.6 29 34.3 2.0 12.0 SSE 0.00 29.441
04/12/2003 3:30 p 63.6 68.0 68.0 68.3 67.7 26 31.9 2.0 9.0 SSE 0.00 29.442
04/12/2003 4:00 p 63.7 68.1 68.1 68.2 67.8 27 32.9 3.0 9.0 S 0.00 29.457
04/12/2003 4:30 p 67.6 67.6 67.6 67.8 67.5 26 31.5 3.0 12.0 SSE 0.00 29.463
04/12/2003 5:00 p 67.3 67.3 67.3 67.7 66.9 24 29.3 2.0 12.0 SSW 0.00 29.481
04/12/2003 5:30 p 66.3 66.3 66.3 66.9 65.5 26 30.4 2.0 6.0 SSW 0.00 29.497
04/12/2003 6:00 p 64.6 64.6 64.6 65.5 64.0 27 29.9 1.0 6.0 SSW 0.00 29.517
04/12/2003 6:30 p 62.9 62.9 62.9 64.0 61.8 28 29.3 1.0 9.0 SSE 0.00 29.540
04/12/2003 7:00 p 62.1 62.1 62.1 62.7 61.5 30 30.3 3.0 12.0 SSE 0.00 29.571
04/12/2003 7:30 p 60.6 60.6 60.6 61.5 59.8 33 31.4 2.0 11.0 SSE 0.00 29.598
04/12/2003 8:00 p 59.4 59.4 59.4 60.0 58.6 34 31.0 2.0 11.0 SSE 0.00 29.624
04/12/2003 8:30 p 58.1 58.1 58.1 58.6 57.6 35 30.6 2.0 11.0 SSE 0.00 29.642
04/12/2003 9:00 p 57.3 57.3 57.3 57.7 56.7 37 31.3 2.0 9.0 S 0.00 29.659
04/12/2003 9:30 p 55.9 55.9 55.9 56.7 55.4 39 31.3 2.0 7.0 SSW 0.00 29.680
04/12/2003 10:00 p 54.7 54.7 54.7 55.4 54.1 41 31.5 2.0 8.0 S 0.00 29.690
04/12/2003 10:30 p 53.6 53.6 53.6 54.1 53.1 43 31.7 2.0 13.0 SSE 0.00 29.707
04/12/2003 11:00 p 52.6 52.6 52.6 53.1 51.9 46 32.4 2.0 8.0 SSE 0.00 29.724
04/12/2003 11:30 p 51.2 51.2 51.2 51.9 50.4 48 32.2 2.0 9.0 SSE 0.00 29.737
04/13/2003 12:00 a 50.2 50.2 50.2 50.6 49.9 49 31.8 1.0 7.0 SSE 0.00 29.739
04/13/2003 12:30 a 49.7 49.7 49.7 50.2 49.1 50 31.8 1.0 7.0 SSE 0.00 29.748
04/13/2003 1:00 a 48.6 48.6 48.6 49.1 48.3 51 31.3 1.0 7.0 SSE 0.00 29.758
04/13/2003 1:30 a 47.9 47.9 47.9 48.4 46.9 54 32.1 1.0 7.0 SSE 0.00 29.767
04/13/2003 2:00 a 45.8 45.8 45.8 46.9 44.2 60 32.7 0.0 2.0 SSE 0.00 29.780
04/13/2003 2:30 a 44.8 44.8 44.8 45.2 44.1 61 32.2 0.0 4.0 SSE 0.00 29.787
04/13/2003 3:00 a 44.5 44.5 44.5 45.3 43.7 58 30.7 0.0 9.0 SSE 0.00 29.793
04/13/2003 3:30 a 45.7 45.7 45.7 45.9 45.1 54 30.0 1.0 7.0 SSE 0.00 29.804
04/13/2003 4:00 a 44.9 44.9 44.9 45.7 44.3 54 29.3 1.0 9.0 SSE 0.00 29.815
04/13/2003 4:30 a 44.3 44.3 44.3 44.5 43.9 54 28.7 2.0 10.0 SSE 0.00 29.834
04/13/2003 5:00 a 42.9 42.9 42.9 43.9 42.1 58 29.2 1.0 5.0 SSE 0.00 29.848
04/13/2003 5:30 a 41.2 41.2 41.2 42.3 39.9 65 30.3 0.0 4.0 SSE 0.00 29.865
04/13/2003 6:00 a 40.5 40.5 40.5 42.1 39.6 61 28.1 1.0 5.0 SSE 0.00 29.891
04/13/2003 6:30 a 43.1 43.1 43.1 43.7 42.1 56 28.5 1.0 9.0 SSE 0.00 29.907
04/13/2003 7:00 a 44.3 44.3 44.3 46.6 43.6 48 25.9 2.0 10.0 SSE 0.00 29.920
04/13/2003 7:30 a 47.6 47.6 47.6 49.9 46.2 41 25.1 2.0 7.0 SSE 0.00 29.935
04/13/2003 8:00 a 54.0 54.0 54.0 57.7 49.9 30 23.3 1.0 9.0 S 0.00 29.948
04/13/2003 8:30 a 58.3 58.3 58.3 59.4 57.5 29 26.2 1.0 6.0 S 0.00 29.956
04/13/2003 9:00 a 59.6 59.6 59.6 60.3 58.5 30 28.2 1.0 7.0 S 0.00 29.963
04/13/2003 9:30 a 59.3 59.3 59.3 61.4 56.6 33 30.2 1.0 7.0 SSW 0.00 29.970
04/13/2003 10:00 a 57.2 57.2 57.2 58.4 56.3 32 27.6 1.0 8.0 SSE 0.00 29.972
04/13/2003 10:30 a 58.0 58.0 58.0 59.6 56.4 32 28.3 1.0 7.0 SSE 0.00 29.974
04/13/2003 11:00 a 58.8 58.8 58.8 61.3 56.7 27 24.9 1.0 8.0 SSE 0.00 29.966
04/13/2003 11:30 a 60.9 60.9 60.9 64.1 59.6 24 23.9 1.0 7.0 SSE 0.00 29.966
04/13/2003 12:00 p 66.5 66.5 66.5 68.3 64.1 21 25.4 2.0 12.0 SSE 0.00 29.961
04/13/2003 12:30 p 65.0 68.7 68.7 69.4 68.3 21 27.2 1.0 6.0 SSE 0.00 29.961
04/13/2003 1:00 p 65.0 68.9 68.9 70.1 67.1 20 26.2 2.0 8.0 SSE 0.00 29.967
04/13/2003 1:30 p 66.9 66.9 66.9 68.0 63.2 21 25.7 1.0 7.0 SSE 0.00 29.961
04/13/2003 2:00 p 61.6 61.6 61.6 63.1 60.8 22 22.4 2.0 6.0 SSE 0.00 29.953
04/13/2003 2:30 p 61.1 61.1 61.1 61.3 60.9 23 23.0 1.0 7.0 SSW 0.00 29.946
04/13/2003 3:00 p 61.7 61.7 61.7 62.0 61.3 21 21.4 1.0 5.0 SSE 0.00 29.955
04/13/2003 3:30 p 61.8 61.8 61.8 62.0 61.7 19 19.1 1.0 7.0 S 0.00 29.948
04/13/2003 4:00 p 61.5 61.5 61.5 61.7 61.4 20 20.1 1.0 7.0 SSE 0.00 29.954
04/13/2003 4:30 p 61.2 61.2 61.2 61.4 61.0 19 18.6 1.0 7.0 SSE 0.00 29.960
04/13/2003 5:00 p 60.6 60.6 60.6 61.2 60.2 20 19.3 1.0 6.0 SSE 0.00 29.964
04/13/2003 5:30 p 59.6 59.6 59.6 60.2 59.1 20 18.5 1.0 6.0 SSE 0.00 29.977
04/13/2003 6:00 p 58.2 58.2 58.2 59.1 57.1 21 18.5 1.0 3.0 SSW 0.00 29.989
04/13/2003 6:30 p 56.1 56.1 56.1 57.1 55.5 22 17.8 0.0 3.0 SSW 0.00 30.003
04/13/2003 7:00 p 54.6 54.6 54.6 55.6 53.1 25 19.5 0.0 5.0 S 0.00 30.020
04/13/2003 7:30 p 52.2 52.2 52.2 53.1 51.8 27 19.2 0.0 1.0 S 0.00 30.031
04/13/2003 8:00 p 51.4 51.4 51.4 51.9 50.8 27 18.6 0.0 0.0 --- 0.00 30.050
04/13/2003 8:30 p 50.1 50.1 50.1 50.8 49.4 29 19.1 0.0 0.0 --- 0.00 30.064
04/13/2003 9:00 p 47.3 47.3 47.3 49.4 45.6 39 23.6 0.0 0.0 --- 0.00 30.083
04/13/2003 9:30 p 46.7 46.7 46.7 47.7 45.6 32 18.4 0.0 1.0 S 0.00 30.093
04/13/2003 10:00 p 48.2 48.2 48.2 48.4 47.7 31 19.0 0.0 2.0 S 0.00 30.104
04/13/2003 10:30 p 47.8 47.8 47.8 48.2 46.8 33 20.1 0.0 3.0 SSW 0.00 30.124
04/13/2003 11:00 p 45.1 45.1 45.1 46.8 44.1 38 21.0 0.0 0.0 --- 0.00 30.133
04/13/2003 11:30 p 45.0 45.0 45.0 45.5 44.2 35 19.0 0.0 1.0 --- 0.00 30.137
04/14/2003 12:00 a 45.0 45.0 45.0 45.4 43.7 39 21.5 0.0 0.0 --- 0.00 30.147
04/14/2003 12:30 a 41.8 41.8 41.8 43.7 40.5 46 22.6 0.0 0.0 --- 0.00 30.155
04/14/2003 1:00 a 40.7 40.7 40.7 41.6 40.0 51 24.0 0.0 0.0 --- 0.00 30.152
04/14/2003 1:30 a 38.8 38.8 38.8 40.8 37.6 60 26.1 0.0 0.0 --- 0.00 30.160
04/14/2003 2:00 a 37.2 37.2 37.2 37.6 36.9 61 25.0 0.0 0.0 --- 0.00 30.167
04/14/2003 2:30 a 35.8 35.8 35.8 36.9 34.7 65 25.2 0.0 0.0 --- 0.00 30.180
04/14/2003 3:00 a 34.2 34.2 34.2 34.7 33.9 69 25.1 0.0 0.0 --- 0.00 30.189
04/14/2003 3:30 a 33.7 33.7 33.7 34.1 33.2 71 25.3 0.0 0.0 --- 0.00 30.198
04/14/2003 4:00 a 33.2 33.2 33.2 33.5 32.8 74 25.8 0.0 0.0 --- 0.00 30.211
04/14/2003 4:30 a 31.8 31.8 31.8 32.8 31.3 75 24.8 0.0 0.0 --- 0.00 30.215
04/14/2003 5:00 a 31.0 31.0 31.0 31.4 30.7 76 24.3 0.0 0.0 --- 0.00 30.221
04/14/2003 5:30 a 30.7 30.7 30.7 30.9 30.6 78 24.7 0.0 0.0 --- 0.00 30.226
04/14/2003 6:00 a 31.4 31.4 31.4 32.6 30.9 78 25.3 0.0 0.0 --- 0.00 30.237
04/14/2003 6:30 a 35.5 35.5 35.5 37.4 32.6 70 26.7 0.0 0.0 --- 0.00 30.250
04/14/2003 7:00 a 40.6 40.6 40.6 45.0 37.4 41 18.8 0.0 2.0 WSW 0.00 30.252
04/14/2003 7:30 a 48.4 48.4 48.4 51.8 45.1 31 19.2 0.0 2.0 WSW 0.00 30.266
04/14/2003 8:00 a 56.6 56.6 56.6 60.7 51.8 23 19.3 0.0 3.0 WNW 0.00 30.271
04/14/2003 8:30 a 61.7 61.7 61.7 63.1 60.5 22 22.5 1.0 4.0 N 0.00 30.272
04/14/2003 9:00 a 61.3 61.3 61.3 62.2 60.5 23 23.2 1.0 5.0 N 0.00 30.281
04/14/2003 9:30 a 60.1 60.1 60.1 61.6 57.5 23 22.2 2.0 7.0 N 0.00 30.285
04/14/2003 10:00 a 57.3 57.3 57.3 58.1 56.2 21 17.7 2.0 5.0 N 0.00 30.295
04/14/2003 10:30 a 57.1 57.1 57.1 58.8 55.6 24 20.7 2.0 6.0 N 0.00 30.280
04/14/2003 11:00 a 57.4 57.4 57.4 59.9 55.6 25 21.9 2.0 6.0 N 0.00 30.272
04/14/2003 11:30 a 59.6 59.6 59.6 62.1 58.6 24 22.8 2.0 6.0 N 0.00 30.264
04/14/2003 12:00 p 65.5 65.5 65.5 66.8 62.2 21 24.6 1.0 5.0 N 0.00 30.257
04/14/2003 12:30 p 65.8 65.8 65.8 66.7 64.8 20 23.6 2.0 6.0 N 0.00 30.248
04/14/2003 1:00 p 65.3 65.3 65.3 65.8 64.9 22 25.5 2.0 5.0 N 0.00 30.235
04/14/2003 1:30 p 64.8 64.8 64.8 66.0 61.3 25 28.2 1.0 6.0 N 0.00 30.223
04/14/2003 2:00 p 59.9 59.9 59.9 61.3 59.3 29 27.6 1.0 5.0 N 0.00 30.209
04/14/2003 2:30 p 59.4 59.4 59.4 59.8 59.0 30 28.0 2.0 5.0 N 0.00 30.192
04/14/2003 3:00 p 59.0 59.0 59.0 59.7 58.3 35 31.4 2.0 5.0 N 0.00 30.182
04/14/2003 3:30 p 57.8 57.8 57.8 58.7 57.4 34 29.6 2.0 6.0 N 0.00 30.177
04/14/2003 4:00 p 57.2 57.2 57.2 57.7 56.5 35 29.8 1.0 5.0 N 0.00 30.166
04/14/2003 4:30 p 56.4 56.4 56.4 56.7 56.1 41 33.0 1.0 6.0 N 0.00 30.157
04/14/2003 5:00 p 56.1 56.1 56.1 56.3 55.7 41 32.7 1.0 4.0 N 0.00 30.153
04/14/2003 5:30 p 55.1 55.1 55.1 55.7 54.5 45 34.2 1.0 3.0 N 0.00 30.149
04/14/2003 6:00 p 53.5 53.5 53.5 54.5 52.7 49 34.8 0.0 3.0 N 0.00 30.140
04/14/2003 6:30 p 52.0 52.0 52.0 52.7 50.6 55 36.4 0.0 3.0 N 0.00 30.139
04/14/2003 7:00 p 49.8 49.8 49.8 50.6 49.3 57 35.2 0.0 1.0 --- 0.00 30.136
04/14/2003 7:30 p 48.4 48.4 48.4 49.3 47.5 60 35.2 0.0 0.0 --- 0.00 30.132
04/14/2003 8:00 p 47.3 47.3 47.3 47.9 46.2 64 35.8 0.0 0.0 --- 0.00 30.137
04/14/2003 8:30 p 45.6 45.6 45.6 46.2 45.0 69 36.0 0.0 0.0 --- 0.00 30.128
04/14/2003 9:00 p 44.8 44.8 44.8 45.3 44.5 69 35.3 0.0 0.0 --- 0.00 30.126
04/14/2003 9:30 p 44.3 44.3 44.3 44.7 44.0 72 35.9 0.0 0.0 --- 0.00 30.112
04/14/2003 10:00 p 44.2 44.2 44.2 44.7 43.9 73 36.1 0.0 0.0 --- 0.00 30.106
04/14/2003 10:30 p 45.7 45.7 45.7 47.0 44.7 69 36.1 0.0 0.0 --- 0.00 30.103
04/14/2003 11:00 p 47.4 47.4 47.4 47.6 47.0 67 37.0 0.0 0.0 --- 0.00 30.099
04/14/2003 11:30 p 47.5 47.5 47.5 47.8 46.8 69 37.9 0.0 1.0 NNE 0.00 30.100
04/15/2003 12:00 a 45.9 45.9 45.9 46.8 45.2 72 37.4 0.0 0.0 --- 0.00 30.101
04/15/2003 12:30 a 44.5 44.5 44.5 45.2 44.3 75 37.1 0.0 0.0 --- 0.00 30.095
04/15/2003 1:00 a 44.0 44.0 44.0 44.5 43.6 78 37.6 0.0 0.0 --- 0.00 30.083
04/15/2003 1:30 a 43.9 43.9 43.9 44.2 43.6 76 36.8 0.0 0.0 --- 0.00 30.079
04/15/2003 2:00 a 45.1 45.1 45.1 46.2 44.2 72 36.6 0.0 1.0 NNE 0.00 30.071
04/15/2003 2:30 a 46.6 46.6 46.6 47.0 46.2 69 37.0 0.0 1.0 --- 0.00 30.063
04/15/2003 3:00 a 47.0 47.0 47.0 47.1 46.9 67 36.6 0.0 1.0 NNE 0.00 30.058
04/15/2003 3:30 a 47.0 47.0 47.0 47.2 46.8 66 36.2 0.0 2.0 SW 0.00 30.054
04/15/2003 4:00 a 46.2 46.2 46.2 46.8 45.8 65 35.1 0.0 1.0 --- 0.00 30.050
04/15/2003 4:30 a 45.3 45.3 45.3 45.8 44.8 66 34.6 0.0 0.0 --- 0.00 30.049
04/15/2003 5:00 a 44.3 44.3 44.3 44.8 43.6 67 34.0 0.0 0.0 --- 0.00 30.052
04/15/2003 5:30 a 43.1 43.1 43.1 43.7 42.9 69 33.6 0.0 0.0 --- 0.00 30.056
04/15/2003 6:00 a 44.0 44.0 44.0 46.3 42.9 61 31.4 0.0 1.0 --- 0.00 30.048
04/15/2003 6:30 a 48.7 48.7 48.7 50.3 46.3 53 32.4 0.0 2.0 SSW 0.00 30.053
04/15/2003 7:00 a 51.6 51.6 51.6 52.5 50.3 49 33.1 0.0 3.0 S 0.00 30.058
04/15/2003 7:30 a 54.6 54.6 54.6 57.4 52.6 43 32.6 0.0 3.0 S 0.00 30.054
04/15/2003 8:00 a 62.7 62.7 62.7 66.8 57.4 32 32.4 1.0 4.0 S 0.00 30.041
04/15/2003 8:30 a 65.0 69.1 69.1 70.5 66.8 30 36.4 0.0 3.0 S 0.00 30.042
04/15/2003 9:00 a 66.2 70.0 70.0 71.6 68.3 31 38.0 0.0 3.0 S 0.00 30.027
04/15/2003 9:30 a 67.0 71.4 71.4 72.5 70.1 30 38.4 0.0 4.0 SSE 0.00 30.014
04/15/2003 10:00 a 67.2 71.0 71.0 72.6 70.0 31 38.9 0.0 3.0 N 0.00 30.004
04/15/2003 10:30 a 69.3 72.2 72.2 73.8 70.9 33 41.5 0.0 5.0 S 0.00 29.991
04/15/2003 11:00 a 69.3 72.1 72.1 74.3 70.5 33 41.4 1.0 3.0 S 0.00 29.969
04/15/2003 11:30 a 73.7 76.1 76.1 80.2 74.1 27 39.7 1.0 4.0 S 0.00 29.951
04/15/2003 12:00 p 81.4 84.1 84.1 85.7 80.2 24 43.4 1.0 4.0 SSE 0.00 29.931
04/15/2003 12:30 p 82.8 85.8 85.8 86.5 85.2 24 44.9 1.0 3.0 S 0.00 29.909
04/15/2003 1:00 p 83.8 86.6 86.6 87.0 86.2 24 45.5 1.0 5.0 S 0.00 29.894
04/15/2003 1:30 p 83.2 86.1 86.1 87.1 83.1 26 47.2 1.0 4.0 SSE 0.00 29.874
04/15/2003 2:00 p 79.0 81.0 81.0 83.0 80.4 28 44.9 1.0 4.0 S 0.00 29.858
04/15/2003 2:30 p 79.0 80.7 80.7 80.8 80.4 27 43.6 1.0 4.0 SE 0.00 29.833
04/15/2003 3:00 p 78.0 80.4 80.4 80.8 80.2 27 43.4 1.0 4.0 SSE 0.00 29.815
04/15/2003 3:30 p 78.0 80.3 80.3 80.5 80.3 27 43.3 1.0 5.0 SSE 0.00 29.795
04/15/2003 4:00 p 78.0 80.2 80.2 80.4 79.8 27 43.2 1.0 4.0 S 0.00 29.784
04/15/2003 4:30 p 77.0 79.3 79.3 79.8 78.8 29 44.3 1.0 5.0 NNE 0.00 29.778
04/15/2003 5:00 p 76.0 77.8 77.8 78.8 76.9 27 41.2 1.0 5.0 SE 0.00 29.778
04/15/2003 5:30 p 74.0 75.8 75.8 76.9 74.7 30 42.2 0.0 3.0 SSW 0.00 29.773
04/15/2003 6:00 p 72.0 73.8 73.8 74.7 72.9 33 42.9 0.0 2.0 SSE 0.00 29.771
04/15/2003 6:30 p 69.5 72.3 72.3 73.1 71.2 35 43.1 0.0 3.0 S 0.00 29.772
04/15/2003 7:00 p 68.0 69.8 69.8 71.2 68.6 40 44.4 0.0 1.0 WSW 0.00 29.773
04/15/2003 7:30 p 67.3 67.3 67.3 68.6 66.2 46 45.8 0.0 0.0 --- 0.00 29.773
04/15/2003 8:00 p 66.2 66.2 66.2 66.5 65.8 51 47.6 0.0 1.0 WSW 0.00 29.776
04/15/2003 8:30 p 65.3 65.3 65.3 66.2 64.6 57 49.7 0.0 1.0 --- 0.00 29.778
04/15/2003 9:00 p 64.7 64.7 64.7 65.2 64.2 60 50.5 0.0 2.0 WSW 0.00 29.772
04/15/2003 9:30 p 64.1 64.1 64.1 64.8 63.2 64 51.7 0.0 0.0 --- 0.00 29.771
04/15/2003 10:00 p 62.1 62.1 62.1 63.1 61.2 68 51.4 0.0 0.0 --- 0.00 29.767
04/15/2003 10:30 p 61.0 61.0 61.0 61.3 60.8 70 51.2 0.0 0.0 --- 0.00 29.761
04/15/2003 11:00 p 60.7 60.7 60.7 61.3 59.9 73 52.0 0.0 0.0 --- 0.00 29.756
04/15/2003 11:30 p 59.0 59.0 59.0 59.8 58.2 77 51.8 0.0 0.0 --- 0.00 29.755
04/16/2003 12:00 a 57.7 57.7 57.7 58.1 57.1 79 51.2 0.0 0.0 --- 0.00 29.754
04/16/2003 12:30 a 56.4 56.4 56.4 57.1 55.9 81 50.7 0.0 0.0 --- 0.00 29.750
04/16/2003 1:00 a 55.4 55.4 55.4 55.9 55.0 84 50.7 0.0 0.0 --- 0.00 29.754
04/16/2003 1:30 a 54.5 54.5 54.5 55.0 54.2 86 50.4 0.0 0.0 --- 0.00 29.747
04/16/2003 2:00 a 56.1 56.1 56.1 58.4 54.2 82 50.7 0.0 0.0 --- 0.00 29.739
04/16/2003 2:30 a 59.0 59.0 59.0 59.3 58.4 80 52.8 0.0 0.0 --- 0.00 29.736
04/16/2003 3:00 a 58.6 58.6 58.6 59.2 57.8 82 53.1 0.0 1.0 NW 0.00 29.735
04/16/2003 3:30 a 56.7 56.7 56.7 57.8 55.6 86 52.6 0.0 0.0 --- 0.00 29.733
04/16/2003 4:00 a 54.7 54.7 54.7 55.6 54.0 88 51.2 0.0 0.0 --- 0.00 29.736
04/16/2003 4:30 a 53.4 53.4 53.4 54.0 53.1 91 50.8 0.0 0.0 --- 0.00 29.726
04/16/2003 5:00 a 52.9 52.9 52.9 53.2 52.5 92 50.6 0.0 0.0 --- 0.00 29.731
04/16/2003 5:30 a 52.2 52.2 52.2 52.5 51.9 93 50.2 0.0 0.0 --- 0.00 29.735
04/16/2003 6:00 a 53.0 53.0 53.0 54.1 52.2 91 50.4 0.0 0.0 --- 0.00 29.742
04/16/2003 6:30 a 56.4 56.4 56.4 58.7 54.1 82 51.0 0.0 1.0 --- 0.00 29.742
04/16/2003 7:00 a 61.5 61.5 61.5 63.7 58.7 72 52.4 0.0 1.0 NW 0.00 29.743
04/16/2003 7:30 a 65.6 65.6 65.6 68.6 63.5 61 51.8 0.0 3.0 SSW 0.00 29.740
04/16/2003 8:00 a 72.4 74.2 74.2 79.2 68.6 42 49.7 0.0 3.0 S 0.00 29.737
04/16/2003 8:30 a 80.0 79.5 79.5 80.9 78.1 41 53.8 0.0 3.0 SSE 0.00 29.732
04/16/2003 9:00 a 79.8 80.6 80.6 83.0 78.7 34 49.7 0.0 5.0 SSE 0.00 29.723
04/16/2003 9:30 a 82.0 84.2 84.2 87.1 82.1 30 49.4 0.0 3.0 S 0.00 29.717
04/16/2003 10:00 a 81.7 83.6 83.6 84.9 82.9 27 46.1 1.0 4.0 S 0.00 29.706
04/16/2003 10:30 a 81.7 84.3 84.3 85.4 83.2 27 46.7 1.0 6.0 SSE 0.00 29.688
04/16/2003 11:00 a 81.7 84.2 84.2 85.3 83.0 27 46.6 1.0 6.0 S 0.00 29.677
04/16/2003 11:30 a 83.4 87.0 87.0 90.9 84.9 22 43.6 1.0 8.0 SSE 0.00 29.667
04/16/2003 12:00 p 90.0 93.7 93.7 94.4 91.0 20 46.6 2.0 9.0 S 0.00 29.654
04/16/2003 12:30 p 90.0 94.0 94.0 94.4 93.7 20 46.9 2.0 6.0 SSE 0.00 29.651
04/16/2003 1:00 p 89.9 93.7 93.7 94.3 92.5 19 45.3 2.0 14.0 SSE 0.00 29.645
04/16/2003 1:30 p 89.4 93.1 93.1 93.7 91.2 21 47.4 1.0 7.0 S 0.00 29.630
04/16/2003 2:00 p 85.4 88.6 88.6 91.1 87.9 22 44.9 1.0 6.0 SSE 0.00 29.624
04/16/2003 2:30 p 84.2 87.6 87.6 88.0 87.1 21 42.9 2.0 9.0 SSE 0.00 29.608
04/16/2003 3:00 p 83.8 86.5 86.5 87.1 86.3 24 45.5 2.0 9.0 SSE 0.00 29.598
04/16/2003 3:30 p 82.2 86.4 86.4 86.6 86.1 21 41.9 2.0 8.0 S 0.00 29.601
04/16/2003 4:00 p 82.8 85.5 85.5 86.1 84.0 24 44.6 1.0 7.0 S 0.00 29.604
04/16/2003 4:30 p 81.4 84.1 84.1 84.4 83.7 24 43.4 1.0 6.0 SSE 0.00 29.605
04/16/2003 5:00 p 81.0 83.2 83.2 83.7 82.3 26 44.8 1.0 5.0 S 0.00 29.607
04/16/2003 5:30 p 80.0 81.6 81.6 82.3 80.8 27 44.4 0.0 4.0 S 0.00 29.613
04/16/2003 6:00 p 78.0 80.1 80.1 80.8 79.6 27 43.1 0.0 4.0 SSE 0.00 29.634
04/16/2003 6:30 p 77.0 79.4 79.4 79.6 79.2 27 42.5 1.0 7.0 S 0.00 29.666
04/16/2003 7:00 p 75.0 76.5 76.5 79.5 73.9 34 46.1 1.0 5.0 NW 0.00 29.697
04/16/2003 7:30 p 71.0 73.4 73.4 74.1 71.9 35 44.1 1.0 5.0 WSW 0.00 29.730
04/16/2003 8:00 p 67.8 70.0 70.0 71.9 68.4 39 43.9 1.0 4.0 WSW 0.00 29.757
04/16/2003 8:30 p 67.0 67.0 67.0 68.4 66.1 44 44.4 0.0 4.0 WSW 0.00 29.794
04/16/2003 9:00 p 64.7 64.7 64.7 66.2 62.8 46 43.5 2.0 8.0 NW 0.00 29.836
04/16/2003 9:30 p 61.2 61.2 61.2 62.8 60.0 49 41.9 1.0 6.0 WNW 0.00 29.866
04/16/2003 10:00 p 59.1 59.1 59.1 60.0 58.3 49 40.0 1.0 6.0 NW 0.00 29.894
04/16/2003 10:30 p 57.4 57.4 57.4 58.3 56.6 49 38.4 1.0 7.0 NW 0.00 29.911
04/16/2003 11:00 p 55.9 55.9 55.9 56.6 55.1 52 38.5 1.0 4.0 NW 0.00 29.920
04/16/2003 11:30 p 52.4 52.4 52.4 55.2 50.3 69 42.5 1.0 5.0 N 0.00 29.956
04/17/2003 12:00 a 48.8 48.8 48.8 50.3 47.8 70 39.5 2.0 5.0 N 0.00 29.977
04/17/2003 12:30 a 47.6 47.6 47.6 47.8 47.2 70 38.3 2.0 5.0 N 0.00 29.989
04/17/2003 1:00 a 46.7 46.7 46.7 47.2 46.4 71 37.8 2.0 8.0 N 0.00 29.995
04/17/2003 1:30 a 46.1 46.1 46.1 46.5 45.6 73 37.9 2.0 6.0 N 0.00 29.994
04/17/2003 2:00 a 45.4 45.4 45.4 45.6 45.1 74 37.6 2.0 6.0 N 0.00 30.008
04/17/2003 2:30 a 44.7 44.7 44.7 45.1 44.3 75 37.3 2.0 6.0 N 0.00 30.019
04/17/2003 3:00 a 44.1 44.1 44.1 44.3 43.9 75 36.7 1.0 6.0 N 0.00 30.024
04/17/2003 3:30 a 43.7 43.7 43.7 43.9 43.5 74 36.0 1.0 6.0 N 0.00 30.037
04/17/2003 4:00 a 43.2 43.2 43.2 43.6 42.7 71 34.4 1.0 4.0 N 0.00 30.049
04/17/2003 4:30 a 42.6 42.6 42.6 42.7 42.4 69 33.2 1.0 5.0 N 0.00 30.058
04/17/2003 5:00 a 42.8 42.8 42.8 42.9 42.5 68 33.0 1.0 5.0 N 0.00 30.078
04/17/2003 5:30 a 43.4 43.4 43.4 43.7 42.9 51 26.5 1.0 5.0 N 0.00 30.084
04/17/2003 6:00 a 43.9 43.9 43.9 43.9 43.7 46 24.5 2.0 5.0 NW 0.00 30.102
04/17/2003 6:30 a 43.3 43.3 43.3 43.9 42.3 56 28.7 2.0 5.0 NNW 0.00 30.125
04/17/2003 7:00 a 42.1 42.1 42.1 42.7 41.7 66 31.6 2.0 6.0 N 0.00 30.133
04/17/2003 7:30 a 42.8 42.8 42.8 43.1 42.5 61 30.3 2.0 5.0 N 0.00 30.135
04/17/2003 8:00 a 44.7 44.7 44.7 46.7 43.0 45 24.7 2.0 5.0 NNW 0.00 30.163
04/17/2003 8:30 a 45.1 45.1 45.1 46.5 44.5 46 25.6 2.0 6.0 NW 0.00 30.181
04/17/2003 9:00 a 45.0 45.0 45.0 45.8 44.7 45 25.0 2.0 5.0 NW 0.00 30.200
04/17/2003 9:30 a 45.6 45.6 45.6 46.4 44.7 44 25.0 2.0 7.0 NNW 0.00 30.206
04/17/2003 10:00 a 45.1 45.1 45.1 45.6 44.7 45 25.0 2.0 6.0 NW 0.00 30.221
04/17/2003 10:30 a 44.7 44.7 44.7 45.4 43.5 53 28.6 2.0 8.0 N 0.00 30.222
04/17/2003 11:00 a 41.5 41.5 41.5 43.5 38.7 79 35.5 3.0 8.0 N 0.00 30.232
04/17/2003 11:30 a 38.3 38.3 38.3 38.7 37.5 87 34.8 2.0 6.0 N 0.01 30.244
04/17/2003 12:00 p 38.3 38.3 38.3 40.6 37.2 85 34.2 3.0 7.0 N 0.00 30.255
04/17/2003 12:30 p 40.7 40.7 40.7 41.1 40.2 81 35.3 3.0 7.0 N 0.00 30.257
04/17/2003 1:00 p 40.3 40.3 40.3 41.4 39.3 80 34.6 3.0 10.0 N 0.00 30.258
04/17/2003 1:30 p 38.9 38.9 38.9 39.4 38.5 77 32.3 3.0 9.0 N 0.00 30.263
04/17/2003 2:00 p 39.2 39.2 39.2 39.9 38.7 76 32.3 3.0 8.0 N 0.00 30.258
04/17/2003 2:30 p 39.6 39.6 39.6 40.2 39.1 75 32.3 2.0 8.0 N 0.00 30.254
04/17/2003 3:00 p 39.2 39.2 39.2 39.6 38.8 75 32.0 3.0 8.0 N 0.00 30.261
04/17/2003 3:30 p 39.3 39.3 39.3 39.8 38.9 72 31.0 3.0 8.0 N 0.00 30.257
04/17/2003 4:00 p 38.4 38.4 38.4 39.2 37.8 83 33.7 2.0 6.0 N 0.00 30.265
04/17/2003 4:30 p 37.7 37.7 37.7 38.0 37.6 78 31.5 3.0 8.0 N 0.00 30.274
04/17/2003 5:00 p 37.8 37.8 37.8 37.9 37.6 76 30.9 3.0 9.0 N 0.00 30.278
04/17/2003 5:30 p 37.6 37.6 37.6 37.8 37.3 76 30.7 4.0 9.0 N 0.00 30.276
04/17/2003 6:00 p 37.3 37.3 37.3 37.3 37.1 77 30.8 3.0 9.0 N 0.00 30.283
04/17/2003 6:30 p 36.8 36.8 36.8 37.1 36.5 74 29.3 3.0 7.0 N 0.00 30.285
04/17/2003 7:00 p 36.3 36.3 36.3 36.5 36.3 72 28.2 3.0 8.0 N 0.00 30.296
04/17/2003 7:30 p 36.3 36.3 36.3 36.3 36.2 67 26.4 3.0 7.0 N 0.00 30.298
04/17/2003 8:00 p 36.3 36.3 36.3 36.3 36.2 68 26.8 2.0 8.0 N 0.00 30.304
04/17/2003 8:30 p 36.3 36.3 36.3 36.3 36.2 65 25.7 2.0 6.0 N 0.00 30.310
04/17/2003 9:00 p 36.3 36.3 36.3 36.4 36.2 63 24.9 2.0 10.0 N 0.00 30.313
04/17/2003 9:30 p 36.4 36.4 36.4 36.5 36.3 63 25.0 1.0 4.0 N 0.00 30.317
04/17/2003 10:00 p 36.4 36.4 36.4 36.5 36.3 66 26.1 2.0 5.0 N 0.00 30.323
04/17/2003 10:30 p 36.1 36.1 36.1 36.4 35.9 67 26.2 2.0 6.0 N 0.00 30.326
04/17/2003 11:00 p 35.7 35.7 35.7 35.9 35.5 69 26.5 2.0 7.0 N 0.00 30.321
04/17/2003 11:30 p 35.4 35.4 35.4 35.6 35.3 68 25.9 1.0 4.0 N 0.00 30.322
04/18/2003 12:00 a 35.4 35.4 35.4 35.7 35.3 66 25.2 1.0 4.0 N 0.00 30.321
04/18/2003 12:30 a 36.1 36.1 36.1 36.4 35.7 67 26.2 1.0 4.0 N 0.00 30.310
04/18/2003 1:00 a 36.3 36.3 36.3 36.4 36.3 64 25.3 1.0 4.0 NNW 0.00 30.310
04/18/2003 1:30 a 36.3 36.3 36.3 36.3 36.2 64 25.3 2.0 4.0 NNW 0.00 30.309
04/18/2003 2:00 a 36.3 36.3 36.3 36.3 36.2 65 25.7 1.0 4.0 NNW 0.00 30.306
04/18/2003 2:30 a 36.4 36.4 36.4 36.5 36.3 66 26.1 1.0 4.0 NNW 0.00 30.299
04/18/2003 3:00 a 36.3 36.3 36.3 36.4 36.3 65 25.7 2.0 6.0 N 0.00 30.295
04/18/2003 3:30 a 36.4 36.4 36.4 36.5 36.3 65 25.8 2.0 5.0 N 0.00 30.290
04/18/2003 4:00 a 36.6 36.6 36.6 36.6 36.5 64 25.6 2.0 5.0 N 0.00 30.287
04/18/2003 4:30 a 36.6 36.6 36.6 36.7 36.5 64 25.6 1.0 4.0 NNW 0.00 30.290
04/18/2003 5:00 a 36.6 36.6 36.6 36.7 36.5 63 25.2 1.0 4.0 NNW 0.00 30.297
04/18/2003 5:30 a 36.7 36.7 36.7 36.8 36.6 64 25.7 2.0 5.0 NNW 0.00 30.308
04/18/2003 6:00 a 36.9 36.9 36.9 37.1 36.7 63 25.5 2.0 5.0 NNW 0.00 30.315
04/18/2003 6:30 a 37.4 37.4 37.4 37.8 37.1 63 26.0 1.0 4.0 N 0.00 30.325
04/18/2003 7:00 a 38.0 38.0 38.0 38.3 37.8 62 26.2 2.0 8.0 N 0.00 30.323
04/18/2003 7:30 a 38.5 38.5 38.5 38.7 38.3 63 27.0 2.0 6.0 NNW 0.00 30.331
04/18/2003 8:00 a 38.6 38.6 38.6 38.9 38.3 65 27.9 1.0 5.0 N 0.00 30.331
04/18/2003 8:30 a 39.2 39.2 39.2 39.7 38.9 64 28.1 1.0 4.0 NNW 0.00 30.336
04/18/2003 9:00 a 40.4 40.4 40.4 41.0 39.7 63 28.8 1.0 4.0 NW 0.00 30.341
04/18/2003 9:30 a 41.5 41.5 41.5 41.8 41.0 62 29.5 2.0 5.0 NW 0.00 30.341
04/18/2003 10:00 a 42.6 42.6 42.6 43.0 41.7 61 30.1 2.0 4.0 NW 0.00 30.343
04/18/2003 10:30 a 43.7 43.7 43.7 45.2 42.7 59 30.3 1.0 4.0 N 0.00 30.341